<?xml version="1.0" encoding="UTF-8" standalone="no" ?>
<gpx xmlns="http://www.topografix.com/GPX/1/1" xmlns:xsi="http://www.w3.org/2001/XMLSchema-instance" xsi:schemaLocation="http://www.topografix.com/GPX/1/1 http://www.topografix.com/GPX/1/1/gpx.xsd" version="1.1" creator="VisuGPX - https://www.visugpx.com">
  <metadata>
    <name>83 - L - St Martin de Pallières </name>
    <desc><![CDATA[83 - L - St Martin de Pallières : les 2 grottes
2021-10-18]]></desc>
  </metadata>
  <trk>
    <name><![CDATA[ST Martin de Pallières 18102021]]></name>
    <extensions>
      <line xmlns="http://www.topografix.com/GPX/gpx_style/0/2">
        <width>4</width>
      </line>
    </extensions>
    <trkseg>
      <trkpt lat="43.58902" lon="5.88388">
        <ele>435.4</ele>
        <time>2021-10-18T07:42:06.000Z</time>
      </trkpt>
      <trkpt lat="43.58902" lon="5.88388">
        <ele>426</ele>
        <time>2021-10-18T07:42:04.000Z</time>
      </trkpt>
      <trkpt lat="43.58902" lon="5.88388">
        <ele>426</ele>
        <time>2021-10-18T07:42:04.000Z</time>
      </trkpt>
      <trkpt lat="43.58902" lon="5.88388">
        <ele>426</ele>
        <time>2021-10-18T07:42:04.000Z</time>
      </trkpt>
      <trkpt lat="43.58893" lon="5.88385">
        <ele>447.6</ele>
        <time>2021-10-18T07:48:01.000Z</time>
      </trkpt>
      <trkpt lat="43.58884" lon="5.88381">
        <ele>447.5</ele>
        <time>2021-10-18T07:48:13.000Z</time>
      </trkpt>
      <trkpt lat="43.58876" lon="5.88376">
        <ele>447.5</ele>
        <time>2021-10-18T07:48:26.000Z</time>
      </trkpt>
      <trkpt lat="43.58867" lon="5.88372">
        <ele>447.6</ele>
        <time>2021-10-18T07:48:39.000Z</time>
      </trkpt>
      <trkpt lat="43.58871" lon="5.88383">
        <ele>448</ele>
        <time>2021-10-18T07:48:57.000Z</time>
      </trkpt>
      <trkpt lat="43.58877" lon="5.88393">
        <ele>448.7</ele>
        <time>2021-10-18T07:49:08.000Z</time>
      </trkpt>
      <trkpt lat="43.58884" lon="5.88403">
        <ele>449.5</ele>
        <time>2021-10-18T07:49:19.000Z</time>
      </trkpt>
      <trkpt lat="43.5889" lon="5.88412">
        <ele>450</ele>
        <time>2021-10-18T07:49:31.000Z</time>
      </trkpt>
      <trkpt lat="43.58899" lon="5.88416">
        <ele>450.7</ele>
        <time>2021-10-18T07:49:40.000Z</time>
      </trkpt>
      <trkpt lat="43.58906" lon="5.88425">
        <ele>451.7</ele>
        <time>2021-10-18T07:49:52.000Z</time>
      </trkpt>
      <trkpt lat="43.58911" lon="5.88436">
        <ele>452.6</ele>
        <time>2021-10-18T07:50:04.000Z</time>
      </trkpt>
      <trkpt lat="43.58911" lon="5.88449">
        <ele>453.5</ele>
        <time>2021-10-18T07:50:20.000Z</time>
      </trkpt>
      <trkpt lat="43.58902" lon="5.88451">
        <ele>454.5</ele>
        <time>2021-10-18T07:51:03.000Z</time>
      </trkpt>
      <trkpt lat="43.58895" lon="5.8846">
        <ele>456</ele>
        <time>2021-10-18T07:51:22.000Z</time>
      </trkpt>
      <trkpt lat="43.58897" lon="5.88473">
        <ele>457</ele>
        <time>2021-10-18T07:51:32.000Z</time>
      </trkpt>
      <trkpt lat="43.58894" lon="5.88485">
        <ele>458.5</ele>
        <time>2021-10-18T07:51:44.000Z</time>
      </trkpt>
      <trkpt lat="43.58893" lon="5.88498">
        <ele>459.5</ele>
        <time>2021-10-18T07:52:03.000Z</time>
      </trkpt>
      <trkpt lat="43.58892" lon="5.8851">
        <ele>461.5</ele>
        <time>2021-10-18T07:52:16.000Z</time>
      </trkpt>
      <trkpt lat="43.58891" lon="5.88523">
        <ele>463.9</ele>
        <time>2021-10-18T07:52:30.000Z</time>
      </trkpt>
      <trkpt lat="43.58882" lon="5.88528">
        <ele>465.8</ele>
        <time>2021-10-18T07:52:52.000Z</time>
      </trkpt>
      <trkpt lat="43.58877" lon="5.88517">
        <ele>466</ele>
        <time>2021-10-18T07:53:02.000Z</time>
      </trkpt>
      <trkpt lat="43.58877" lon="5.88504">
        <ele>466.9</ele>
        <time>2021-10-18T07:53:18.000Z</time>
      </trkpt>
      <trkpt lat="43.58875" lon="5.88492">
        <ele>466.5</ele>
        <time>2021-10-18T07:55:52.000Z</time>
      </trkpt>
      <trkpt lat="43.58873" lon="5.88504">
        <ele>468.3</ele>
        <time>2021-10-18T07:56:46.000Z</time>
      </trkpt>
      <trkpt lat="43.58869" lon="5.88516">
        <ele>470.8</ele>
        <time>2021-10-18T07:57:57.000Z</time>
      </trkpt>
      <trkpt lat="43.58871" lon="5.88529">
        <ele>471.6</ele>
        <time>2021-10-18T07:58:13.000Z</time>
      </trkpt>
      <trkpt lat="43.58862" lon="5.88532">
        <ele>474.4</ele>
        <time>2021-10-18T07:59:41.000Z</time>
      </trkpt>
      <trkpt lat="43.58852" lon="5.88531">
        <ele>476.4</ele>
        <time>2021-10-18T07:59:54.000Z</time>
      </trkpt>
      <trkpt lat="43.58843" lon="5.88528">
        <ele>478.3</ele>
        <time>2021-10-18T08:00:25.000Z</time>
      </trkpt>
      <trkpt lat="43.58834" lon="5.88526">
        <ele>478.4</ele>
        <time>2021-10-18T08:00:53.000Z</time>
      </trkpt>
      <trkpt lat="43.5883" lon="5.88538">
        <ele>477.8</ele>
        <time>2021-10-18T08:01:41.000Z</time>
      </trkpt>
      <trkpt lat="43.58827" lon="5.88551">
        <ele>478.2</ele>
        <time>2021-10-18T08:01:50.000Z</time>
      </trkpt>
      <trkpt lat="43.58821" lon="5.88561">
        <ele>478.9</ele>
        <time>2021-10-18T08:04:21.000Z</time>
      </trkpt>
      <trkpt lat="43.58817" lon="5.88572">
        <ele>478.9</ele>
        <time>2021-10-18T08:05:17.000Z</time>
      </trkpt>
      <trkpt lat="43.58813" lon="5.88584">
        <ele>479.3</ele>
        <time>2021-10-18T08:05:32.000Z</time>
      </trkpt>
      <trkpt lat="43.5881" lon="5.88597">
        <ele>479.7</ele>
        <time>2021-10-18T08:05:45.000Z</time>
      </trkpt>
      <trkpt lat="43.58806" lon="5.88609">
        <ele>480.1</ele>
        <time>2021-10-18T08:05:54.000Z</time>
      </trkpt>
      <trkpt lat="43.58803" lon="5.88621">
        <ele>481.1</ele>
        <time>2021-10-18T08:06:06.000Z</time>
      </trkpt>
      <trkpt lat="43.58795" lon="5.88615">
        <ele>482</ele>
        <time>2021-10-18T08:06:17.000Z</time>
      </trkpt>
      <trkpt lat="43.58786" lon="5.8861">
        <ele>482.5</ele>
        <time>2021-10-18T08:06:26.000Z</time>
      </trkpt>
      <trkpt lat="43.58777" lon="5.88609">
        <ele>484</ele>
        <time>2021-10-18T08:07:06.000Z</time>
      </trkpt>
      <trkpt lat="43.58775" lon="5.88622">
        <ele>486.1</ele>
        <time>2021-10-18T08:08:00.000Z</time>
      </trkpt>
      <trkpt lat="43.58771" lon="5.88634">
        <ele>486.2</ele>
        <time>2021-10-18T08:08:37.000Z</time>
      </trkpt>
      <trkpt lat="43.58769" lon="5.88647">
        <ele>488.3</ele>
        <time>2021-10-18T08:08:54.000Z</time>
      </trkpt>
      <trkpt lat="43.58766" lon="5.88659">
        <ele>489.1</ele>
        <time>2021-10-18T08:09:06.000Z</time>
      </trkpt>
      <trkpt lat="43.58762" lon="5.8867">
        <ele>489.6</ele>
        <time>2021-10-18T08:09:19.000Z</time>
      </trkpt>
      <trkpt lat="43.58759" lon="5.88683">
        <ele>490.5</ele>
        <time>2021-10-18T08:09:29.000Z</time>
      </trkpt>
      <trkpt lat="43.58753" lon="5.88693">
        <ele>490.8</ele>
        <time>2021-10-18T08:09:42.000Z</time>
      </trkpt>
      <trkpt lat="43.5875" lon="5.88705">
        <ele>493.4</ele>
        <time>2021-10-18T08:09:53.000Z</time>
      </trkpt>
      <trkpt lat="43.58747" lon="5.88717">
        <ele>494.8</ele>
        <time>2021-10-18T08:10:04.000Z</time>
      </trkpt>
      <trkpt lat="43.58744" lon="5.88729">
        <ele>495.1</ele>
        <time>2021-10-18T08:10:17.000Z</time>
      </trkpt>
      <trkpt lat="43.58738" lon="5.8874">
        <ele>495.7</ele>
        <time>2021-10-18T08:10:26.000Z</time>
      </trkpt>
      <trkpt lat="43.58735" lon="5.88752">
        <ele>496.8</ele>
        <time>2021-10-18T08:10:35.000Z</time>
      </trkpt>
      <trkpt lat="43.58729" lon="5.88763">
        <ele>498.2</ele>
        <time>2021-10-18T08:10:45.000Z</time>
      </trkpt>
      <trkpt lat="43.58723" lon="5.88773">
        <ele>499.4</ele>
        <time>2021-10-18T08:10:54.000Z</time>
      </trkpt>
      <trkpt lat="43.58719" lon="5.88784">
        <ele>500.4</ele>
        <time>2021-10-18T08:11:05.000Z</time>
      </trkpt>
      <trkpt lat="43.58713" lon="5.88795">
        <ele>501.2</ele>
        <time>2021-10-18T08:11:14.000Z</time>
      </trkpt>
      <trkpt lat="43.58707" lon="5.88805">
        <ele>501.8</ele>
        <time>2021-10-18T08:11:24.000Z</time>
      </trkpt>
      <trkpt lat="43.58702" lon="5.88817">
        <ele>502.7</ele>
        <time>2021-10-18T08:11:34.000Z</time>
      </trkpt>
      <trkpt lat="43.58695" lon="5.88826">
        <ele>503.7</ele>
        <time>2021-10-18T08:11:44.000Z</time>
      </trkpt>
      <trkpt lat="43.5869" lon="5.88836">
        <ele>504.3</ele>
        <time>2021-10-18T08:11:54.000Z</time>
      </trkpt>
      <trkpt lat="43.58684" lon="5.88846">
        <ele>505.1</ele>
        <time>2021-10-18T08:12:03.000Z</time>
      </trkpt>
      <trkpt lat="43.58676" lon="5.88854">
        <ele>505.9</ele>
        <time>2021-10-18T08:12:12.000Z</time>
      </trkpt>
      <trkpt lat="43.5867" lon="5.88863">
        <ele>506.8</ele>
        <time>2021-10-18T08:12:22.000Z</time>
      </trkpt>
      <trkpt lat="43.58663" lon="5.88872">
        <ele>507.3</ele>
        <time>2021-10-18T08:12:32.000Z</time>
      </trkpt>
      <trkpt lat="43.58657" lon="5.88883">
        <ele>509.2</ele>
        <time>2021-10-18T08:13:03.000Z</time>
      </trkpt>
      <trkpt lat="43.58659" lon="5.88895">
        <ele>508.7</ele>
        <time>2021-10-18T08:13:25.000Z</time>
      </trkpt>
      <trkpt lat="43.58657" lon="5.88908">
        <ele>508.5</ele>
        <time>2021-10-18T08:13:49.000Z</time>
      </trkpt>
      <trkpt lat="43.5865" lon="5.88917">
        <ele>509</ele>
        <time>2021-10-18T08:13:59.000Z</time>
      </trkpt>
      <trkpt lat="43.58646" lon="5.88931">
        <ele>510</ele>
        <time>2021-10-18T08:14:11.000Z</time>
      </trkpt>
      <trkpt lat="43.58639" lon="5.8894">
        <ele>511.2</ele>
        <time>2021-10-18T08:14:24.000Z</time>
      </trkpt>
      <trkpt lat="43.58632" lon="5.88949">
        <ele>512.3</ele>
        <time>2021-10-18T08:14:35.000Z</time>
      </trkpt>
      <trkpt lat="43.58626" lon="5.88959">
        <ele>513.1</ele>
        <time>2021-10-18T08:14:46.000Z</time>
      </trkpt>
      <trkpt lat="43.58621" lon="5.88969">
        <ele>513.8</ele>
        <time>2021-10-18T08:14:54.000Z</time>
      </trkpt>
      <trkpt lat="43.58622" lon="5.88982">
        <ele>514.3</ele>
        <time>2021-10-18T08:15:06.000Z</time>
      </trkpt>
      <trkpt lat="43.58627" lon="5.88994">
        <ele>514.3</ele>
        <time>2021-10-18T08:15:16.000Z</time>
      </trkpt>
      <trkpt lat="43.58633" lon="5.89004">
        <ele>514</ele>
        <time>2021-10-18T08:15:26.000Z</time>
      </trkpt>
      <trkpt lat="43.58637" lon="5.89016">
        <ele>513.7</ele>
        <time>2021-10-18T08:15:36.000Z</time>
      </trkpt>
      <trkpt lat="43.5864" lon="5.89028">
        <ele>512.8</ele>
        <time>2021-10-18T08:15:47.000Z</time>
      </trkpt>
      <trkpt lat="43.58644" lon="5.89039">
        <ele>512.3</ele>
        <time>2021-10-18T08:15:58.000Z</time>
      </trkpt>
      <trkpt lat="43.58644" lon="5.89052">
        <ele>512.1</ele>
        <time>2021-10-18T08:17:17.000Z</time>
      </trkpt>
      <trkpt lat="43.58638" lon="5.89042">
        <ele>512.2</ele>
        <time>2021-10-18T08:20:59.000Z</time>
      </trkpt>
      <trkpt lat="43.5863" lon="5.89034">
        <ele>512.2</ele>
        <time>2021-10-18T08:21:20.000Z</time>
      </trkpt>
      <trkpt lat="43.58623" lon="5.89042">
        <ele>514.3</ele>
        <time>2021-10-18T08:22:24.000Z</time>
      </trkpt>
      <trkpt lat="43.58615" lon="5.89048">
        <ele>515.2</ele>
        <time>2021-10-18T08:22:34.000Z</time>
      </trkpt>
      <trkpt lat="43.58605" lon="5.8905">
        <ele>516.2</ele>
        <time>2021-10-18T08:22:44.000Z</time>
      </trkpt>
      <trkpt lat="43.58596" lon="5.89056">
        <ele>517.1</ele>
        <time>2021-10-18T08:22:53.000Z</time>
      </trkpt>
      <trkpt lat="43.58586" lon="5.8906">
        <ele>518</ele>
        <time>2021-10-18T08:23:03.000Z</time>
      </trkpt>
      <trkpt lat="43.58577" lon="5.89063">
        <ele>518.5</ele>
        <time>2021-10-18T08:23:13.000Z</time>
      </trkpt>
      <trkpt lat="43.58569" lon="5.89069">
        <ele>518.9</ele>
        <time>2021-10-18T08:23:23.000Z</time>
      </trkpt>
      <trkpt lat="43.58561" lon="5.89075">
        <ele>519.3</ele>
        <time>2021-10-18T08:23:33.000Z</time>
      </trkpt>
      <trkpt lat="43.58553" lon="5.89082">
        <ele>519.7</ele>
        <time>2021-10-18T08:23:41.000Z</time>
      </trkpt>
      <trkpt lat="43.58545" lon="5.89087">
        <ele>520.2</ele>
        <time>2021-10-18T08:23:56.000Z</time>
      </trkpt>
      <trkpt lat="43.58536" lon="5.89092">
        <ele>520.5</ele>
        <time>2021-10-18T08:24:07.000Z</time>
      </trkpt>
      <trkpt lat="43.58528" lon="5.89098">
        <ele>520.8</ele>
        <time>2021-10-18T08:24:18.000Z</time>
      </trkpt>
      <trkpt lat="43.5852" lon="5.89106">
        <ele>520.5</ele>
        <time>2021-10-18T08:24:26.000Z</time>
      </trkpt>
      <trkpt lat="43.58512" lon="5.89112">
        <ele>519.5</ele>
        <time>2021-10-18T08:24:38.000Z</time>
      </trkpt>
      <trkpt lat="43.58502" lon="5.89116">
        <ele>518.8</ele>
        <time>2021-10-18T08:24:49.000Z</time>
      </trkpt>
      <trkpt lat="43.58494" lon="5.89122">
        <ele>518.1</ele>
        <time>2021-10-18T08:25:00.000Z</time>
      </trkpt>
      <trkpt lat="43.58492" lon="5.89134">
        <ele>517.4</ele>
        <time>2021-10-18T08:25:44.000Z</time>
      </trkpt>
      <trkpt lat="43.58493" lon="5.89147">
        <ele>517.4</ele>
        <time>2021-10-18T08:25:57.000Z</time>
      </trkpt>
      <trkpt lat="43.58494" lon="5.89159">
        <ele>517.9</ele>
        <time>2021-10-18T08:26:08.000Z</time>
      </trkpt>
      <trkpt lat="43.58491" lon="5.89171">
        <ele>518.9</ele>
        <time>2021-10-18T08:26:19.000Z</time>
      </trkpt>
      <trkpt lat="43.58485" lon="5.89182">
        <ele>519.9</ele>
        <time>2021-10-18T08:26:28.000Z</time>
      </trkpt>
      <trkpt lat="43.58479" lon="5.89192">
        <ele>521.2</ele>
        <time>2021-10-18T08:26:40.000Z</time>
      </trkpt>
      <trkpt lat="43.58472" lon="5.89199">
        <ele>522.5</ele>
        <time>2021-10-18T08:26:50.000Z</time>
      </trkpt>
      <trkpt lat="43.58464" lon="5.89206">
        <ele>523.9</ele>
        <time>2021-10-18T08:27:06.000Z</time>
      </trkpt>
      <trkpt lat="43.58454" lon="5.8921">
        <ele>524.4</ele>
        <time>2021-10-18T08:27:16.000Z</time>
      </trkpt>
      <trkpt lat="43.58445" lon="5.89214">
        <ele>525.1</ele>
        <time>2021-10-18T08:27:27.000Z</time>
      </trkpt>
      <trkpt lat="43.58437" lon="5.8922">
        <ele>525.5</ele>
        <time>2021-10-18T08:27:38.000Z</time>
      </trkpt>
      <trkpt lat="43.5843" lon="5.89227">
        <ele>526.6</ele>
        <time>2021-10-18T08:27:50.000Z</time>
      </trkpt>
      <trkpt lat="43.58422" lon="5.89233">
        <ele>527.6</ele>
        <time>2021-10-18T08:28:03.000Z</time>
      </trkpt>
      <trkpt lat="43.58414" lon="5.8924">
        <ele>528.6</ele>
        <time>2021-10-18T08:28:16.000Z</time>
      </trkpt>
      <trkpt lat="43.58405" lon="5.89245">
        <ele>529.4</ele>
        <time>2021-10-18T08:28:31.000Z</time>
      </trkpt>
      <trkpt lat="43.58395" lon="5.89245">
        <ele>529.8</ele>
        <time>2021-10-18T08:28:47.000Z</time>
      </trkpt>
      <trkpt lat="43.58387" lon="5.89243">
        <ele>529.6</ele>
        <time>2021-10-18T08:29:13.000Z</time>
      </trkpt>
      <trkpt lat="43.58377" lon="5.89246">
        <ele>529.6</ele>
        <time>2021-10-18T08:29:25.000Z</time>
      </trkpt>
      <trkpt lat="43.58368" lon="5.89247">
        <ele>529.8</ele>
        <time>2021-10-18T08:29:36.000Z</time>
      </trkpt>
      <trkpt lat="43.58358" lon="5.89247">
        <ele>530.3</ele>
        <time>2021-10-18T08:29:46.000Z</time>
      </trkpt>
      <trkpt lat="43.5835" lon="5.8925">
        <ele>530.8</ele>
        <time>2021-10-18T08:29:58.000Z</time>
      </trkpt>
      <trkpt lat="43.58341" lon="5.89256">
        <ele>533</ele>
        <time>2021-10-18T08:30:12.000Z</time>
      </trkpt>
      <trkpt lat="43.58332" lon="5.89258">
        <ele>530.6</ele>
        <time>2021-10-18T08:30:59.000Z</time>
      </trkpt>
      <trkpt lat="43.5834" lon="5.89253">
        <ele>525.7</ele>
        <time>2021-10-18T08:32:12.000Z</time>
      </trkpt>
      <trkpt lat="43.58349" lon="5.89249">
        <ele>531.1</ele>
        <time>2021-10-18T08:32:22.000Z</time>
      </trkpt>
      <trkpt lat="43.58358" lon="5.89245">
        <ele>533</ele>
        <time>2021-10-18T08:32:34.000Z</time>
      </trkpt>
      <trkpt lat="43.58368" lon="5.89243">
        <ele>533.1</ele>
        <time>2021-10-18T08:32:45.000Z</time>
      </trkpt>
      <trkpt lat="43.58378" lon="5.89242">
        <ele>532.6</ele>
        <time>2021-10-18T08:32:57.000Z</time>
      </trkpt>
      <trkpt lat="43.58387" lon="5.89242">
        <ele>532.4</ele>
        <time>2021-10-18T08:33:21.000Z</time>
      </trkpt>
      <trkpt lat="43.58396" lon="5.89243">
        <ele>532.6</ele>
        <time>2021-10-18T08:33:37.000Z</time>
      </trkpt>
      <trkpt lat="43.58405" lon="5.89241">
        <ele>532.5</ele>
        <time>2021-10-18T08:33:49.000Z</time>
      </trkpt>
      <trkpt lat="43.58413" lon="5.89236">
        <ele>532.7</ele>
        <time>2021-10-18T08:34:01.000Z</time>
      </trkpt>
      <trkpt lat="43.58421" lon="5.89229">
        <ele>532.5</ele>
        <time>2021-10-18T08:34:10.000Z</time>
      </trkpt>
      <trkpt lat="43.58429" lon="5.89221">
        <ele>532</ele>
        <time>2021-10-18T08:34:22.000Z</time>
      </trkpt>
      <trkpt lat="43.58437" lon="5.89214">
        <ele>531.3</ele>
        <time>2021-10-18T08:34:33.000Z</time>
      </trkpt>
      <trkpt lat="43.58446" lon="5.89211">
        <ele>530.2</ele>
        <time>2021-10-18T08:34:44.000Z</time>
      </trkpt>
      <trkpt lat="43.58455" lon="5.89208">
        <ele>529.7</ele>
        <time>2021-10-18T08:34:54.000Z</time>
      </trkpt>
      <trkpt lat="43.58464" lon="5.89202">
        <ele>529.4</ele>
        <time>2021-10-18T08:35:05.000Z</time>
      </trkpt>
      <trkpt lat="43.5847" lon="5.89192">
        <ele>528.7</ele>
        <time>2021-10-18T08:35:15.000Z</time>
      </trkpt>
      <trkpt lat="43.58478" lon="5.89185">
        <ele>528.2</ele>
        <time>2021-10-18T08:35:22.000Z</time>
      </trkpt>
      <trkpt lat="43.58483" lon="5.89173">
        <ele>527.1</ele>
        <time>2021-10-18T08:35:30.000Z</time>
      </trkpt>
      <trkpt lat="43.58488" lon="5.89163">
        <ele>526.2</ele>
        <time>2021-10-18T08:35:39.000Z</time>
      </trkpt>
      <trkpt lat="43.58492" lon="5.89151">
        <ele>525.2</ele>
        <time>2021-10-18T08:35:50.000Z</time>
      </trkpt>
      <trkpt lat="43.58491" lon="5.89138">
        <ele>523.9</ele>
        <time>2021-10-18T08:36:03.000Z</time>
      </trkpt>
      <trkpt lat="43.5849" lon="5.89126">
        <ele>523.5</ele>
        <time>2021-10-18T08:36:12.000Z</time>
      </trkpt>
      <trkpt lat="43.58482" lon="5.89131">
        <ele>523.6</ele>
        <time>2021-10-18T08:36:25.000Z</time>
      </trkpt>
      <trkpt lat="43.58473" lon="5.89136">
        <ele>524.1</ele>
        <time>2021-10-18T08:36:35.000Z</time>
      </trkpt>
      <trkpt lat="43.58464" lon="5.89139">
        <ele>524.9</ele>
        <time>2021-10-18T08:36:46.000Z</time>
      </trkpt>
      <trkpt lat="43.58456" lon="5.89147">
        <ele>526.2</ele>
        <time>2021-10-18T08:36:57.000Z</time>
      </trkpt>
      <trkpt lat="43.58448" lon="5.89153">
        <ele>527.2</ele>
        <time>2021-10-18T08:37:06.000Z</time>
      </trkpt>
      <trkpt lat="43.58439" lon="5.89158">
        <ele>528.8</ele>
        <time>2021-10-18T08:37:18.000Z</time>
      </trkpt>
      <trkpt lat="43.58431" lon="5.89165">
        <ele>530.2</ele>
        <time>2021-10-18T08:37:29.000Z</time>
      </trkpt>
      <trkpt lat="43.58422" lon="5.89169">
        <ele>531.6</ele>
        <time>2021-10-18T08:37:39.000Z</time>
      </trkpt>
      <trkpt lat="43.58413" lon="5.89172">
        <ele>532.6</ele>
        <time>2021-10-18T08:37:48.000Z</time>
      </trkpt>
      <trkpt lat="43.58403" lon="5.89171">
        <ele>533.3</ele>
        <time>2021-10-18T08:37:58.000Z</time>
      </trkpt>
      <trkpt lat="43.58395" lon="5.89166">
        <ele>533.7</ele>
        <time>2021-10-18T08:38:07.000Z</time>
      </trkpt>
      <trkpt lat="43.58386" lon="5.89161">
        <ele>533.7</ele>
        <time>2021-10-18T08:38:18.000Z</time>
      </trkpt>
      <trkpt lat="43.58377" lon="5.89153">
        <ele>533.7</ele>
        <time>2021-10-18T08:38:30.000Z</time>
      </trkpt>
      <trkpt lat="43.58369" lon="5.89147">
        <ele>533.9</ele>
        <time>2021-10-18T08:38:38.000Z</time>
      </trkpt>
      <trkpt lat="43.58362" lon="5.89138">
        <ele>534.1</ele>
        <time>2021-10-18T08:38:48.000Z</time>
      </trkpt>
      <trkpt lat="43.58365" lon="5.89126">
        <ele>534.7</ele>
        <time>2021-10-18T08:39:14.000Z</time>
      </trkpt>
      <trkpt lat="43.5837" lon="5.89115">
        <ele>534.6</ele>
        <time>2021-10-18T08:39:23.000Z</time>
      </trkpt>
      <trkpt lat="43.58376" lon="5.89105">
        <ele>534.5</ele>
        <time>2021-10-18T08:39:33.000Z</time>
      </trkpt>
      <trkpt lat="43.58378" lon="5.89093">
        <ele>534.5</ele>
        <time>2021-10-18T08:39:43.000Z</time>
      </trkpt>
      <trkpt lat="43.58386" lon="5.89084">
        <ele>534.7</ele>
        <time>2021-10-18T08:39:51.000Z</time>
      </trkpt>
      <trkpt lat="43.58393" lon="5.89076">
        <ele>535.4</ele>
        <time>2021-10-18T08:40:09.000Z</time>
      </trkpt>
      <trkpt lat="43.58401" lon="5.89066">
        <ele>535.9</ele>
        <time>2021-10-18T08:40:18.000Z</time>
      </trkpt>
      <trkpt lat="43.58407" lon="5.89057">
        <ele>536.2</ele>
        <time>2021-10-18T08:40:26.000Z</time>
      </trkpt>
      <trkpt lat="43.58414" lon="5.89049">
        <ele>536.6</ele>
        <time>2021-10-18T08:40:34.000Z</time>
      </trkpt>
      <trkpt lat="43.58421" lon="5.89039">
        <ele>537</ele>
        <time>2021-10-18T08:40:43.000Z</time>
      </trkpt>
      <trkpt lat="43.58429" lon="5.89032">
        <ele>537.1</ele>
        <time>2021-10-18T08:40:51.000Z</time>
      </trkpt>
      <trkpt lat="43.58438" lon="5.89027">
        <ele>537.1</ele>
        <time>2021-10-18T08:40:59.000Z</time>
      </trkpt>
      <trkpt lat="43.58447" lon="5.89022">
        <ele>537</ele>
        <time>2021-10-18T08:41:07.000Z</time>
      </trkpt>
      <trkpt lat="43.58455" lon="5.89017">
        <ele>536.8</ele>
        <time>2021-10-18T08:41:15.000Z</time>
      </trkpt>
      <trkpt lat="43.58464" lon="5.89012">
        <ele>536.6</ele>
        <time>2021-10-18T08:41:23.000Z</time>
      </trkpt>
      <trkpt lat="43.58472" lon="5.89007">
        <ele>536.3</ele>
        <time>2021-10-18T08:41:31.000Z</time>
      </trkpt>
      <trkpt lat="43.58481" lon="5.89003">
        <ele>535.6</ele>
        <time>2021-10-18T08:41:40.000Z</time>
      </trkpt>
      <trkpt lat="43.58489" lon="5.88997">
        <ele>535.4</ele>
        <time>2021-10-18T08:41:49.000Z</time>
      </trkpt>
      <trkpt lat="43.58498" lon="5.88992">
        <ele>535.1</ele>
        <time>2021-10-18T08:41:57.000Z</time>
      </trkpt>
      <trkpt lat="43.58506" lon="5.88984">
        <ele>534.9</ele>
        <time>2021-10-18T08:42:06.000Z</time>
      </trkpt>
      <trkpt lat="43.58513" lon="5.88977">
        <ele>534.6</ele>
        <time>2021-10-18T08:42:14.000Z</time>
      </trkpt>
      <trkpt lat="43.58521" lon="5.8897">
        <ele>534.2</ele>
        <time>2021-10-18T08:42:23.000Z</time>
      </trkpt>
      <trkpt lat="43.5853" lon="5.88965">
        <ele>533.9</ele>
        <time>2021-10-18T08:42:31.000Z</time>
      </trkpt>
      <trkpt lat="43.58537" lon="5.88958">
        <ele>533.4</ele>
        <time>2021-10-18T08:42:40.000Z</time>
      </trkpt>
      <trkpt lat="43.58546" lon="5.88951">
        <ele>533</ele>
        <time>2021-10-18T08:42:50.000Z</time>
      </trkpt>
      <trkpt lat="43.58554" lon="5.88946">
        <ele>532.5</ele>
        <time>2021-10-18T08:43:00.000Z</time>
      </trkpt>
      <trkpt lat="43.58563" lon="5.88942">
        <ele>532</ele>
        <time>2021-10-18T08:43:08.000Z</time>
      </trkpt>
      <trkpt lat="43.58571" lon="5.88936">
        <ele>531.5</ele>
        <time>2021-10-18T08:43:16.000Z</time>
      </trkpt>
      <trkpt lat="43.58579" lon="5.8893">
        <ele>530.7</ele>
        <time>2021-10-18T08:43:25.000Z</time>
      </trkpt>
      <trkpt lat="43.58588" lon="5.88924">
        <ele>529.7</ele>
        <time>2021-10-18T08:43:36.000Z</time>
      </trkpt>
      <trkpt lat="43.58597" lon="5.88918">
        <ele>528.9</ele>
        <time>2021-10-18T08:43:44.000Z</time>
      </trkpt>
      <trkpt lat="43.58604" lon="5.8891">
        <ele>527.9</ele>
        <time>2021-10-18T08:43:53.000Z</time>
      </trkpt>
      <trkpt lat="43.58601" lon="5.88897">
        <ele>527.4</ele>
        <time>2021-10-18T08:44:04.000Z</time>
      </trkpt>
      <trkpt lat="43.58608" lon="5.88889">
        <ele>531.4</ele>
        <time>2021-10-18T08:49:19.000Z</time>
      </trkpt>
      <trkpt lat="43.58615" lon="5.88879">
        <ele>531.3</ele>
        <time>2021-10-18T08:49:32.000Z</time>
      </trkpt>
      <trkpt lat="43.58621" lon="5.88869">
        <ele>531.2</ele>
        <time>2021-10-18T08:49:44.000Z</time>
      </trkpt>
      <trkpt lat="43.58626" lon="5.88857">
        <ele>531.1</ele>
        <time>2021-10-18T08:49:55.000Z</time>
      </trkpt>
      <trkpt lat="43.58632" lon="5.88848">
        <ele>531</ele>
        <time>2021-10-18T08:50:05.000Z</time>
      </trkpt>
      <trkpt lat="43.58637" lon="5.88837">
        <ele>530.6</ele>
        <time>2021-10-18T08:50:16.000Z</time>
      </trkpt>
      <trkpt lat="43.58643" lon="5.88828">
        <ele>530.6</ele>
        <time>2021-10-18T08:50:25.000Z</time>
      </trkpt>
      <trkpt lat="43.5865" lon="5.88819">
        <ele>530.3</ele>
        <time>2021-10-18T08:50:36.000Z</time>
      </trkpt>
      <trkpt lat="43.58657" lon="5.88809">
        <ele>529.9</ele>
        <time>2021-10-18T08:50:52.000Z</time>
      </trkpt>
      <trkpt lat="43.58661" lon="5.88797">
        <ele>529.9</ele>
        <time>2021-10-18T08:51:01.000Z</time>
      </trkpt>
      <trkpt lat="43.58666" lon="5.88785">
        <ele>529.8</ele>
        <time>2021-10-18T08:51:10.000Z</time>
      </trkpt>
      <trkpt lat="43.5867" lon="5.88773">
        <ele>529.6</ele>
        <time>2021-10-18T08:51:20.000Z</time>
      </trkpt>
      <trkpt lat="43.58675" lon="5.88762">
        <ele>529</ele>
        <time>2021-10-18T08:51:30.000Z</time>
      </trkpt>
      <trkpt lat="43.58678" lon="5.88749">
        <ele>528.7</ele>
        <time>2021-10-18T08:51:41.000Z</time>
      </trkpt>
      <trkpt lat="43.58682" lon="5.88737">
        <ele>528.5</ele>
        <time>2021-10-18T08:51:51.000Z</time>
      </trkpt>
      <trkpt lat="43.58685" lon="5.88724">
        <ele>528.2</ele>
        <time>2021-10-18T08:52:01.000Z</time>
      </trkpt>
      <trkpt lat="43.58688" lon="5.88711">
        <ele>527.9</ele>
        <time>2021-10-18T08:52:13.000Z</time>
      </trkpt>
      <trkpt lat="43.5869" lon="5.88698">
        <ele>527.2</ele>
        <time>2021-10-18T08:52:25.000Z</time>
      </trkpt>
      <trkpt lat="43.58687" lon="5.88686">
        <ele>526.9</ele>
        <time>2021-10-18T08:52:36.000Z</time>
      </trkpt>
      <trkpt lat="43.58681" lon="5.88675">
        <ele>525.3</ele>
        <time>2021-10-18T08:53:10.000Z</time>
      </trkpt>
      <trkpt lat="43.58673" lon="5.88669">
        <ele>529</ele>
        <time>2021-10-18T08:53:21.000Z</time>
      </trkpt>
      <trkpt lat="43.58664" lon="5.88665">
        <ele>528.4</ele>
        <time>2021-10-18T08:53:30.000Z</time>
      </trkpt>
      <trkpt lat="43.58655" lon="5.88662">
        <ele>527.7</ele>
        <time>2021-10-18T08:53:39.000Z</time>
      </trkpt>
      <trkpt lat="43.58645" lon="5.88659">
        <ele>527.1</ele>
        <time>2021-10-18T08:53:49.000Z</time>
      </trkpt>
      <trkpt lat="43.58646" lon="5.88646">
        <ele>526.5</ele>
        <time>2021-10-18T08:54:13.000Z</time>
      </trkpt>
      <trkpt lat="43.58651" lon="5.88635">
        <ele>526.3</ele>
        <time>2021-10-18T08:54:25.000Z</time>
      </trkpt>
      <trkpt lat="43.58646" lon="5.88625">
        <ele>526.3</ele>
        <time>2021-10-18T08:54:57.000Z</time>
      </trkpt>
      <trkpt lat="43.58654" lon="5.88616">
        <ele>525.7</ele>
        <time>2021-10-18T08:55:15.000Z</time>
      </trkpt>
      <trkpt lat="43.5866" lon="5.88606">
        <ele>525.9</ele>
        <time>2021-10-18T08:55:24.000Z</time>
      </trkpt>
      <trkpt lat="43.58666" lon="5.88596">
        <ele>526.3</ele>
        <time>2021-10-18T08:56:01.000Z</time>
      </trkpt>
      <trkpt lat="43.58665" lon="5.88584">
        <ele>524.6</ele>
        <time>2021-10-18T08:56:18.000Z</time>
      </trkpt>
      <trkpt lat="43.58671" lon="5.88575">
        <ele>525.1</ele>
        <time>2021-10-18T08:56:28.000Z</time>
      </trkpt>
      <trkpt lat="43.58673" lon="5.88562">
        <ele>525.8</ele>
        <time>2021-10-18T08:56:41.000Z</time>
      </trkpt>
      <trkpt lat="43.58678" lon="5.88552">
        <ele>527.3</ele>
        <time>2021-10-18T08:56:55.000Z</time>
      </trkpt>
      <trkpt lat="43.5868" lon="5.8854">
        <ele>526.1</ele>
        <time>2021-10-18T08:57:13.000Z</time>
      </trkpt>
      <trkpt lat="43.5868" lon="5.88527">
        <ele>524.8</ele>
        <time>2021-10-18T08:57:25.000Z</time>
      </trkpt>
      <trkpt lat="43.58682" lon="5.88515">
        <ele>523.3</ele>
        <time>2021-10-18T08:57:40.000Z</time>
      </trkpt>
      <trkpt lat="43.58678" lon="5.88503">
        <ele>521.8</ele>
        <time>2021-10-18T08:57:55.000Z</time>
      </trkpt>
      <trkpt lat="43.58674" lon="5.88491">
        <ele>520</ele>
        <time>2021-10-18T08:58:11.000Z</time>
      </trkpt>
      <trkpt lat="43.58668" lon="5.88482">
        <ele>518.7</ele>
        <time>2021-10-18T08:58:25.000Z</time>
      </trkpt>
      <trkpt lat="43.58662" lon="5.88473">
        <ele>516.5</ele>
        <time>2021-10-18T08:58:44.000Z</time>
      </trkpt>
      <trkpt lat="43.58656" lon="5.88462">
        <ele>514.6</ele>
        <time>2021-10-18T08:59:06.000Z</time>
      </trkpt>
      <trkpt lat="43.58648" lon="5.88457">
        <ele>512.7</ele>
        <time>2021-10-18T08:59:49.000Z</time>
      </trkpt>
      <trkpt lat="43.58639" lon="5.88451">
        <ele>511.4</ele>
        <time>2021-10-18T09:00:03.000Z</time>
      </trkpt>
      <trkpt lat="43.58629" lon="5.88452">
        <ele>510</ele>
        <time>2021-10-18T09:00:48.000Z</time>
      </trkpt>
      <trkpt lat="43.58621" lon="5.88459">
        <ele>510.9</ele>
        <time>2021-10-18T09:01:07.000Z</time>
      </trkpt>
      <trkpt lat="43.58613" lon="5.88467">
        <ele>511.1</ele>
        <time>2021-10-18T09:01:17.000Z</time>
      </trkpt>
      <trkpt lat="43.58605" lon="5.88474">
        <ele>510.7</ele>
        <time>2021-10-18T09:01:28.000Z</time>
      </trkpt>
      <trkpt lat="43.58598" lon="5.88483">
        <ele>511.1</ele>
        <time>2021-10-18T09:01:40.000Z</time>
      </trkpt>
      <trkpt lat="43.58591" lon="5.88493">
        <ele>510</ele>
        <time>2021-10-18T09:01:50.000Z</time>
      </trkpt>
      <trkpt lat="43.58584" lon="5.88501">
        <ele>510.7</ele>
        <time>2021-10-18T09:02:04.000Z</time>
      </trkpt>
      <trkpt lat="43.58574" lon="5.88495">
        <ele>510.7</ele>
        <time>2021-10-18T09:02:14.000Z</time>
      </trkpt>
      <trkpt lat="43.58569" lon="5.88485">
        <ele>510.7</ele>
        <time>2021-10-18T09:02:23.000Z</time>
      </trkpt>
      <trkpt lat="43.58569" lon="5.88471">
        <ele>510.8</ele>
        <time>2021-10-18T09:02:33.000Z</time>
      </trkpt>
      <trkpt lat="43.58571" lon="5.88459">
        <ele>511.1</ele>
        <time>2021-10-18T09:02:42.000Z</time>
      </trkpt>
      <trkpt lat="43.58572" lon="5.88446">
        <ele>511.6</ele>
        <time>2021-10-18T09:02:52.000Z</time>
      </trkpt>
      <trkpt lat="43.58574" lon="5.88434">
        <ele>512.2</ele>
        <time>2021-10-18T09:03:01.000Z</time>
      </trkpt>
      <trkpt lat="43.58576" lon="5.88421">
        <ele>512.9</ele>
        <time>2021-10-18T09:03:11.000Z</time>
      </trkpt>
      <trkpt lat="43.58571" lon="5.88409">
        <ele>512.1</ele>
        <time>2021-10-18T09:03:21.000Z</time>
      </trkpt>
      <trkpt lat="43.58562" lon="5.88408">
        <ele>513.9</ele>
        <time>2021-10-18T09:03:31.000Z</time>
      </trkpt>
      <trkpt lat="43.58553" lon="5.8841">
        <ele>517.2</ele>
        <time>2021-10-18T09:03:42.000Z</time>
      </trkpt>
      <trkpt lat="43.58543" lon="5.88411">
        <ele>517.1</ele>
        <time>2021-10-18T09:03:51.000Z</time>
      </trkpt>
      <trkpt lat="43.58534" lon="5.88411">
        <ele>516.1</ele>
        <time>2021-10-18T09:04:01.000Z</time>
      </trkpt>
      <trkpt lat="43.58525" lon="5.88412">
        <ele>515.4</ele>
        <time>2021-10-18T09:04:11.000Z</time>
      </trkpt>
      <trkpt lat="43.58516" lon="5.88413">
        <ele>515.3</ele>
        <time>2021-10-18T09:04:18.000Z</time>
      </trkpt>
      <trkpt lat="43.58506" lon="5.88413">
        <ele>515</ele>
        <time>2021-10-18T09:04:28.000Z</time>
      </trkpt>
      <trkpt lat="43.58497" lon="5.88415">
        <ele>514.3</ele>
        <time>2021-10-18T09:04:37.000Z</time>
      </trkpt>
      <trkpt lat="43.58487" lon="5.88415">
        <ele>513.8</ele>
        <time>2021-10-18T09:04:47.000Z</time>
      </trkpt>
      <trkpt lat="43.58478" lon="5.88413">
        <ele>513.3</ele>
        <time>2021-10-18T09:04:57.000Z</time>
      </trkpt>
      <trkpt lat="43.58468" lon="5.8841">
        <ele>512.6</ele>
        <time>2021-10-18T09:05:07.000Z</time>
      </trkpt>
      <trkpt lat="43.58459" lon="5.88409">
        <ele>512.1</ele>
        <time>2021-10-18T09:05:16.000Z</time>
      </trkpt>
      <trkpt lat="43.5845" lon="5.88406">
        <ele>511.6</ele>
        <time>2021-10-18T09:05:25.000Z</time>
      </trkpt>
      <trkpt lat="43.58441" lon="5.884">
        <ele>511.2</ele>
        <time>2021-10-18T09:05:34.000Z</time>
      </trkpt>
      <trkpt lat="43.58434" lon="5.88392">
        <ele>510.7</ele>
        <time>2021-10-18T09:05:43.000Z</time>
      </trkpt>
      <trkpt lat="43.58426" lon="5.88384">
        <ele>510.3</ele>
        <time>2021-10-18T09:05:52.000Z</time>
      </trkpt>
      <trkpt lat="43.58419" lon="5.88376">
        <ele>509.7</ele>
        <time>2021-10-18T09:06:01.000Z</time>
      </trkpt>
      <trkpt lat="43.58412" lon="5.88368">
        <ele>509.5</ele>
        <time>2021-10-18T09:06:10.000Z</time>
      </trkpt>
      <trkpt lat="43.58405" lon="5.8836">
        <ele>509</ele>
        <time>2021-10-18T09:06:19.000Z</time>
      </trkpt>
      <trkpt lat="43.58397" lon="5.88352">
        <ele>508.4</ele>
        <time>2021-10-18T09:06:29.000Z</time>
      </trkpt>
      <trkpt lat="43.58389" lon="5.88343">
        <ele>505.3</ele>
        <time>2021-10-18T09:06:39.000Z</time>
      </trkpt>
      <trkpt lat="43.58381" lon="5.88337">
        <ele>505.3</ele>
        <time>2021-10-18T09:06:49.000Z</time>
      </trkpt>
      <trkpt lat="43.58371" lon="5.88333">
        <ele>506.1</ele>
        <time>2021-10-18T09:06:58.000Z</time>
      </trkpt>
      <trkpt lat="43.58362" lon="5.8833">
        <ele>506.2</ele>
        <time>2021-10-18T09:07:06.000Z</time>
      </trkpt>
      <trkpt lat="43.58352" lon="5.88328">
        <ele>508.9</ele>
        <time>2021-10-18T09:07:15.000Z</time>
      </trkpt>
      <trkpt lat="43.58348" lon="5.88317">
        <ele>507.9</ele>
        <time>2021-10-18T09:07:28.000Z</time>
      </trkpt>
      <trkpt lat="43.58353" lon="5.88307">
        <ele>506.3</ele>
        <time>2021-10-18T09:07:39.000Z</time>
      </trkpt>
      <trkpt lat="43.5835" lon="5.88295">
        <ele>506</ele>
        <time>2021-10-18T09:07:52.000Z</time>
      </trkpt>
      <trkpt lat="43.58343" lon="5.88287">
        <ele>505.1</ele>
        <time>2021-10-18T09:08:03.000Z</time>
      </trkpt>
      <trkpt lat="43.58335" lon="5.8828">
        <ele>503.9</ele>
        <time>2021-10-18T09:08:16.000Z</time>
      </trkpt>
      <trkpt lat="43.58326" lon="5.88273">
        <ele>503.1</ele>
        <time>2021-10-18T09:08:26.000Z</time>
      </trkpt>
      <trkpt lat="43.58318" lon="5.88267">
        <ele>502</ele>
        <time>2021-10-18T09:08:37.000Z</time>
      </trkpt>
      <trkpt lat="43.5831" lon="5.88258">
        <ele>501.1</ele>
        <time>2021-10-18T09:08:47.000Z</time>
      </trkpt>
      <trkpt lat="43.58302" lon="5.88252">
        <ele>500.4</ele>
        <time>2021-10-18T09:08:56.000Z</time>
      </trkpt>
      <trkpt lat="43.58295" lon="5.88245">
        <ele>500.2</ele>
        <time>2021-10-18T09:09:06.000Z</time>
      </trkpt>
      <trkpt lat="43.58288" lon="5.88235">
        <ele>500.2</ele>
        <time>2021-10-18T09:09:16.000Z</time>
      </trkpt>
      <trkpt lat="43.58281" lon="5.88227">
        <ele>500.8</ele>
        <time>2021-10-18T09:09:28.000Z</time>
      </trkpt>
      <trkpt lat="43.58273" lon="5.88219">
        <ele>501.6</ele>
        <time>2021-10-18T09:09:41.000Z</time>
      </trkpt>
      <trkpt lat="43.58265" lon="5.88213">
        <ele>501.9</ele>
        <time>2021-10-18T09:09:51.000Z</time>
      </trkpt>
      <trkpt lat="43.58256" lon="5.88209">
        <ele>502.5</ele>
        <time>2021-10-18T09:10:03.000Z</time>
      </trkpt>
      <trkpt lat="43.58248" lon="5.88201">
        <ele>503</ele>
        <time>2021-10-18T09:10:13.000Z</time>
      </trkpt>
      <trkpt lat="43.58241" lon="5.88194">
        <ele>503.5</ele>
        <time>2021-10-18T09:10:24.000Z</time>
      </trkpt>
      <trkpt lat="43.58234" lon="5.88186">
        <ele>504.4</ele>
        <time>2021-10-18T09:10:36.000Z</time>
      </trkpt>
      <trkpt lat="43.58225" lon="5.88183">
        <ele>505.2</ele>
        <time>2021-10-18T09:10:49.000Z</time>
      </trkpt>
      <trkpt lat="43.58217" lon="5.88176">
        <ele>505.9</ele>
        <time>2021-10-18T09:11:00.000Z</time>
      </trkpt>
      <trkpt lat="43.58209" lon="5.88169">
        <ele>506.2</ele>
        <time>2021-10-18T09:11:11.000Z</time>
      </trkpt>
      <trkpt lat="43.58201" lon="5.88164">
        <ele>507</ele>
        <time>2021-10-18T09:11:22.000Z</time>
      </trkpt>
      <trkpt lat="43.58193" lon="5.88157">
        <ele>507.9</ele>
        <time>2021-10-18T09:11:33.000Z</time>
      </trkpt>
      <trkpt lat="43.58186" lon="5.88148">
        <ele>508.7</ele>
        <time>2021-10-18T09:11:44.000Z</time>
      </trkpt>
      <trkpt lat="43.58178" lon="5.88141">
        <ele>509.5</ele>
        <time>2021-10-18T09:11:57.000Z</time>
      </trkpt>
      <trkpt lat="43.58171" lon="5.88132">
        <ele>510.1</ele>
        <time>2021-10-18T09:12:08.000Z</time>
      </trkpt>
      <trkpt lat="43.58165" lon="5.88123">
        <ele>511.1</ele>
        <time>2021-10-18T09:12:17.000Z</time>
      </trkpt>
      <trkpt lat="43.58157" lon="5.88114">
        <ele>511.7</ele>
        <time>2021-10-18T09:12:27.000Z</time>
      </trkpt>
      <trkpt lat="43.5815" lon="5.88106">
        <ele>512.1</ele>
        <time>2021-10-18T09:12:40.000Z</time>
      </trkpt>
      <trkpt lat="43.58141" lon="5.88101">
        <ele>514.3</ele>
        <time>2021-10-18T09:12:50.000Z</time>
      </trkpt>
      <trkpt lat="43.58133" lon="5.88097">
        <ele>512.2</ele>
        <time>2021-10-18T09:13:00.000Z</time>
      </trkpt>
      <trkpt lat="43.58125" lon="5.88089">
        <ele>513.1</ele>
        <time>2021-10-18T09:13:10.000Z</time>
      </trkpt>
      <trkpt lat="43.58117" lon="5.88082">
        <ele>516.3</ele>
        <time>2021-10-18T09:13:18.000Z</time>
      </trkpt>
      <trkpt lat="43.58109" lon="5.88073">
        <ele>516.4</ele>
        <time>2021-10-18T09:13:27.000Z</time>
      </trkpt>
      <trkpt lat="43.58102" lon="5.88064">
        <ele>515.9</ele>
        <time>2021-10-18T09:13:37.000Z</time>
      </trkpt>
      <trkpt lat="43.58095" lon="5.88056">
        <ele>515.5</ele>
        <time>2021-10-18T09:13:47.000Z</time>
      </trkpt>
      <trkpt lat="43.58088" lon="5.88047">
        <ele>515.8</ele>
        <time>2021-10-18T09:13:58.000Z</time>
      </trkpt>
      <trkpt lat="43.5808" lon="5.88042">
        <ele>516.2</ele>
        <time>2021-10-18T09:14:08.000Z</time>
      </trkpt>
      <trkpt lat="43.58071" lon="5.88036">
        <ele>516.7</ele>
        <time>2021-10-18T09:14:19.000Z</time>
      </trkpt>
      <trkpt lat="43.58064" lon="5.88028">
        <ele>517</ele>
        <time>2021-10-18T09:14:29.000Z</time>
      </trkpt>
      <trkpt lat="43.58055" lon="5.88023">
        <ele>518.2</ele>
        <time>2021-10-18T09:17:01.000Z</time>
      </trkpt>
      <trkpt lat="43.58047" lon="5.88017">
        <ele>518.1</ele>
        <time>2021-10-18T09:17:13.000Z</time>
      </trkpt>
      <trkpt lat="43.58038" lon="5.88011">
        <ele>518.3</ele>
        <time>2021-10-18T09:17:23.000Z</time>
      </trkpt>
      <trkpt lat="43.58029" lon="5.88006">
        <ele>518.5</ele>
        <time>2021-10-18T09:17:32.000Z</time>
      </trkpt>
      <trkpt lat="43.58022" lon="5.87999">
        <ele>518.6</ele>
        <time>2021-10-18T09:17:41.000Z</time>
      </trkpt>
      <trkpt lat="43.58014" lon="5.87992">
        <ele>519.8</ele>
        <time>2021-10-18T09:17:52.000Z</time>
      </trkpt>
      <trkpt lat="43.58008" lon="5.87982">
        <ele>521.1</ele>
        <time>2021-10-18T09:18:16.000Z</time>
      </trkpt>
      <trkpt lat="43.58" lon="5.87976">
        <ele>521.7</ele>
        <time>2021-10-18T09:19:13.000Z</time>
      </trkpt>
      <trkpt lat="43.57993" lon="5.87967">
        <ele>522.6</ele>
        <time>2021-10-18T09:19:45.000Z</time>
      </trkpt>
      <trkpt lat="43.57985" lon="5.8796">
        <ele>522.6</ele>
        <time>2021-10-18T09:19:57.000Z</time>
      </trkpt>
      <trkpt lat="43.57978" lon="5.87953">
        <ele>523.2</ele>
        <time>2021-10-18T09:20:11.000Z</time>
      </trkpt>
      <trkpt lat="43.57972" lon="5.87943">
        <ele>524.2</ele>
        <time>2021-10-18T09:20:24.000Z</time>
      </trkpt>
      <trkpt lat="43.57965" lon="5.87933">
        <ele>524.8</ele>
        <time>2021-10-18T09:20:36.000Z</time>
      </trkpt>
      <trkpt lat="43.57957" lon="5.87927">
        <ele>525.4</ele>
        <time>2021-10-18T09:20:47.000Z</time>
      </trkpt>
      <trkpt lat="43.57949" lon="5.87921">
        <ele>526.2</ele>
        <time>2021-10-18T09:20:59.000Z</time>
      </trkpt>
      <trkpt lat="43.57941" lon="5.87916">
        <ele>526.5</ele>
        <time>2021-10-18T09:21:09.000Z</time>
      </trkpt>
      <trkpt lat="43.57933" lon="5.87908">
        <ele>527</ele>
        <time>2021-10-18T09:21:20.000Z</time>
      </trkpt>
      <trkpt lat="43.57928" lon="5.87897">
        <ele>527.7</ele>
        <time>2021-10-18T09:21:30.000Z</time>
      </trkpt>
      <trkpt lat="43.57925" lon="5.87884">
        <ele>528.7</ele>
        <time>2021-10-18T09:21:41.000Z</time>
      </trkpt>
      <trkpt lat="43.57921" lon="5.87873">
        <ele>529.6</ele>
        <time>2021-10-18T09:21:53.000Z</time>
      </trkpt>
      <trkpt lat="43.57913" lon="5.87867">
        <ele>530.1</ele>
        <time>2021-10-18T09:22:05.000Z</time>
      </trkpt>
      <trkpt lat="43.57905" lon="5.8786">
        <ele>530.2</ele>
        <time>2021-10-18T09:22:14.000Z</time>
      </trkpt>
      <trkpt lat="43.57899" lon="5.87849">
        <ele>530.2</ele>
        <time>2021-10-18T09:22:24.000Z</time>
      </trkpt>
      <trkpt lat="43.57893" lon="5.8784">
        <ele>529.8</ele>
        <time>2021-10-18T09:22:35.000Z</time>
      </trkpt>
      <trkpt lat="43.57886" lon="5.87831">
        <ele>529.5</ele>
        <time>2021-10-18T09:22:44.000Z</time>
      </trkpt>
      <trkpt lat="43.57879" lon="5.87823">
        <ele>529.4</ele>
        <time>2021-10-18T09:22:57.000Z</time>
      </trkpt>
      <trkpt lat="43.57872" lon="5.87815">
        <ele>529.1</ele>
        <time>2021-10-18T09:23:06.000Z</time>
      </trkpt>
      <trkpt lat="43.57866" lon="5.87806">
        <ele>528.5</ele>
        <time>2021-10-18T09:23:16.000Z</time>
      </trkpt>
      <trkpt lat="43.57859" lon="5.87797">
        <ele>528</ele>
        <time>2021-10-18T09:23:25.000Z</time>
      </trkpt>
      <trkpt lat="43.57852" lon="5.87788">
        <ele>527.8</ele>
        <time>2021-10-18T09:23:34.000Z</time>
      </trkpt>
      <trkpt lat="43.57845" lon="5.87778">
        <ele>527.5</ele>
        <time>2021-10-18T09:23:43.000Z</time>
      </trkpt>
      <trkpt lat="43.57838" lon="5.8777">
        <ele>527.2</ele>
        <time>2021-10-18T09:23:52.000Z</time>
      </trkpt>
      <trkpt lat="43.57834" lon="5.87759">
        <ele>527.2</ele>
        <time>2021-10-18T09:24:01.000Z</time>
      </trkpt>
      <trkpt lat="43.5783" lon="5.87747">
        <ele>527.1</ele>
        <time>2021-10-18T09:24:10.000Z</time>
      </trkpt>
      <trkpt lat="43.57825" lon="5.87735">
        <ele>527</ele>
        <time>2021-10-18T09:24:19.000Z</time>
      </trkpt>
      <trkpt lat="43.5782" lon="5.87725">
        <ele>527</ele>
        <time>2021-10-18T09:24:28.000Z</time>
      </trkpt>
      <trkpt lat="43.57811" lon="5.8772">
        <ele>527</ele>
        <time>2021-10-18T09:24:39.000Z</time>
      </trkpt>
      <trkpt lat="43.57805" lon="5.87711">
        <ele>527</ele>
        <time>2021-10-18T09:24:49.000Z</time>
      </trkpt>
      <trkpt lat="43.57799" lon="5.87701">
        <ele>527.1</ele>
        <time>2021-10-18T09:25:00.000Z</time>
      </trkpt>
      <trkpt lat="43.57794" lon="5.87689">
        <ele>527.1</ele>
        <time>2021-10-18T09:25:10.000Z</time>
      </trkpt>
      <trkpt lat="43.57789" lon="5.87678">
        <ele>527.3</ele>
        <time>2021-10-18T09:25:20.000Z</time>
      </trkpt>
      <trkpt lat="43.57784" lon="5.87667">
        <ele>527.4</ele>
        <time>2021-10-18T09:25:30.000Z</time>
      </trkpt>
      <trkpt lat="43.57779" lon="5.87655">
        <ele>527.6</ele>
        <time>2021-10-18T09:25:40.000Z</time>
      </trkpt>
      <trkpt lat="43.57775" lon="5.87644">
        <ele>527.9</ele>
        <time>2021-10-18T09:25:49.000Z</time>
      </trkpt>
      <trkpt lat="43.57772" lon="5.87632">
        <ele>528.3</ele>
        <time>2021-10-18T09:26:00.000Z</time>
      </trkpt>
      <trkpt lat="43.57767" lon="5.8762">
        <ele>528.5</ele>
        <time>2021-10-18T09:26:10.000Z</time>
      </trkpt>
      <trkpt lat="43.57763" lon="5.87607">
        <ele>529</ele>
        <time>2021-10-18T09:26:20.000Z</time>
      </trkpt>
      <trkpt lat="43.57761" lon="5.87594">
        <ele>529.2</ele>
        <time>2021-10-18T09:26:30.000Z</time>
      </trkpt>
      <trkpt lat="43.57761" lon="5.87582">
        <ele>529.6</ele>
        <time>2021-10-18T09:26:41.000Z</time>
      </trkpt>
      <trkpt lat="43.5776" lon="5.87569">
        <ele>530.1</ele>
        <time>2021-10-18T09:26:54.000Z</time>
      </trkpt>
      <trkpt lat="43.57761" lon="5.87556">
        <ele>530.9</ele>
        <time>2021-10-18T09:27:06.000Z</time>
      </trkpt>
      <trkpt lat="43.57763" lon="5.87544">
        <ele>531.9</ele>
        <time>2021-10-18T09:27:18.000Z</time>
      </trkpt>
      <trkpt lat="43.57762" lon="5.8753">
        <ele>532.5</ele>
        <time>2021-10-18T09:27:29.000Z</time>
      </trkpt>
      <trkpt lat="43.57762" lon="5.87516">
        <ele>532.9</ele>
        <time>2021-10-18T09:27:41.000Z</time>
      </trkpt>
      <trkpt lat="43.57762" lon="5.87503">
        <ele>533.1</ele>
        <time>2021-10-18T09:27:51.000Z</time>
      </trkpt>
      <trkpt lat="43.57763" lon="5.8749">
        <ele>533.1</ele>
        <time>2021-10-18T09:28:01.000Z</time>
      </trkpt>
      <trkpt lat="43.57764" lon="5.87477">
        <ele>533</ele>
        <time>2021-10-18T09:28:11.000Z</time>
      </trkpt>
      <trkpt lat="43.57763" lon="5.87465">
        <ele>533</ele>
        <time>2021-10-18T09:28:21.000Z</time>
      </trkpt>
      <trkpt lat="43.57762" lon="5.87451">
        <ele>533</ele>
        <time>2021-10-18T09:28:31.000Z</time>
      </trkpt>
      <trkpt lat="43.57763" lon="5.87439">
        <ele>532.7</ele>
        <time>2021-10-18T09:28:42.000Z</time>
      </trkpt>
      <trkpt lat="43.57761" lon="5.87426">
        <ele>532.2</ele>
        <time>2021-10-18T09:28:54.000Z</time>
      </trkpt>
      <trkpt lat="43.57761" lon="5.87413">
        <ele>531.6</ele>
        <time>2021-10-18T09:29:05.000Z</time>
      </trkpt>
      <trkpt lat="43.57766" lon="5.87402">
        <ele>531</ele>
        <time>2021-10-18T09:29:19.000Z</time>
      </trkpt>
      <trkpt lat="43.57768" lon="5.87389">
        <ele>530.6</ele>
        <time>2021-10-18T09:29:31.000Z</time>
      </trkpt>
      <trkpt lat="43.57768" lon="5.87376">
        <ele>529.9</ele>
        <time>2021-10-18T09:29:43.000Z</time>
      </trkpt>
      <trkpt lat="43.57773" lon="5.87364">
        <ele>529.3</ele>
        <time>2021-10-18T09:29:55.000Z</time>
      </trkpt>
      <trkpt lat="43.57775" lon="5.87351">
        <ele>529</ele>
        <time>2021-10-18T09:30:04.000Z</time>
      </trkpt>
      <trkpt lat="43.57777" lon="5.87338">
        <ele>528.6</ele>
        <time>2021-10-18T09:30:16.000Z</time>
      </trkpt>
      <trkpt lat="43.57779" lon="5.87325">
        <ele>528.2</ele>
        <time>2021-10-18T09:30:27.000Z</time>
      </trkpt>
      <trkpt lat="43.57782" lon="5.87313">
        <ele>527.7</ele>
        <time>2021-10-18T09:30:41.000Z</time>
      </trkpt>
      <trkpt lat="43.57785" lon="5.87301">
        <ele>527.4</ele>
        <time>2021-10-18T09:30:52.000Z</time>
      </trkpt>
      <trkpt lat="43.57788" lon="5.87289">
        <ele>527.1</ele>
        <time>2021-10-18T09:31:05.000Z</time>
      </trkpt>
      <trkpt lat="43.57792" lon="5.87278">
        <ele>526.9</ele>
        <time>2021-10-18T09:31:16.000Z</time>
      </trkpt>
      <trkpt lat="43.57797" lon="5.87267">
        <ele>526.5</ele>
        <time>2021-10-18T09:31:28.000Z</time>
      </trkpt>
      <trkpt lat="43.57802" lon="5.87256">
        <ele>525.6</ele>
        <time>2021-10-18T09:31:43.000Z</time>
      </trkpt>
      <trkpt lat="43.57805" lon="5.87243">
        <ele>525</ele>
        <time>2021-10-18T09:32:01.000Z</time>
      </trkpt>
      <trkpt lat="43.5781" lon="5.87232">
        <ele>524.1</ele>
        <time>2021-10-18T09:32:11.000Z</time>
      </trkpt>
      <trkpt lat="43.57814" lon="5.8722">
        <ele>523.5</ele>
        <time>2021-10-18T09:32:21.000Z</time>
      </trkpt>
      <trkpt lat="43.57813" lon="5.87207">
        <ele>523.2</ele>
        <time>2021-10-18T09:32:30.000Z</time>
      </trkpt>
      <trkpt lat="43.57812" lon="5.87195">
        <ele>523.4</ele>
        <time>2021-10-18T09:32:39.000Z</time>
      </trkpt>
      <trkpt lat="43.5781" lon="5.87182">
        <ele>523.5</ele>
        <time>2021-10-18T09:32:48.000Z</time>
      </trkpt>
      <trkpt lat="43.5781" lon="5.87168">
        <ele>523.7</ele>
        <time>2021-10-18T09:32:57.000Z</time>
      </trkpt>
      <trkpt lat="43.5781" lon="5.87155">
        <ele>523.7</ele>
        <time>2021-10-18T09:33:06.000Z</time>
      </trkpt>
      <trkpt lat="43.5781" lon="5.87142">
        <ele>523.9</ele>
        <time>2021-10-18T09:33:17.000Z</time>
      </trkpt>
      <trkpt lat="43.57811" lon="5.8713">
        <ele>524</ele>
        <time>2021-10-18T09:33:28.000Z</time>
      </trkpt>
      <trkpt lat="43.57813" lon="5.87117">
        <ele>523.8</ele>
        <time>2021-10-18T09:33:38.000Z</time>
      </trkpt>
      <trkpt lat="43.57815" lon="5.87105">
        <ele>523.6</ele>
        <time>2021-10-18T09:33:48.000Z</time>
      </trkpt>
      <trkpt lat="43.57817" lon="5.87092">
        <ele>523.4</ele>
        <time>2021-10-18T09:33:58.000Z</time>
      </trkpt>
      <trkpt lat="43.57818" lon="5.87079">
        <ele>522.8</ele>
        <time>2021-10-18T09:34:10.000Z</time>
      </trkpt>
      <trkpt lat="43.57818" lon="5.87066">
        <ele>522.2</ele>
        <time>2021-10-18T09:34:21.000Z</time>
      </trkpt>
      <trkpt lat="43.57822" lon="5.87054">
        <ele>521</ele>
        <time>2021-10-18T09:34:44.000Z</time>
      </trkpt>
      <trkpt lat="43.57824" lon="5.8704">
        <ele>520.5</ele>
        <time>2021-10-18T09:34:56.000Z</time>
      </trkpt>
      <trkpt lat="43.57824" lon="5.87028">
        <ele>520</ele>
        <time>2021-10-18T09:35:05.000Z</time>
      </trkpt>
      <trkpt lat="43.57827" lon="5.87016">
        <ele>519.3</ele>
        <time>2021-10-18T09:35:18.000Z</time>
      </trkpt>
      <trkpt lat="43.57826" lon="5.87003">
        <ele>518.8</ele>
        <time>2021-10-18T09:35:32.000Z</time>
      </trkpt>
      <trkpt lat="43.57827" lon="5.8699">
        <ele>518.3</ele>
        <time>2021-10-18T09:35:43.000Z</time>
      </trkpt>
      <trkpt lat="43.57826" lon="5.86977">
        <ele>517.7</ele>
        <time>2021-10-18T09:35:55.000Z</time>
      </trkpt>
      <trkpt lat="43.57824" lon="5.86965">
        <ele>516.7</ele>
        <time>2021-10-18T09:36:08.000Z</time>
      </trkpt>
      <trkpt lat="43.57825" lon="5.86952">
        <ele>515.1</ele>
        <time>2021-10-18T09:36:37.000Z</time>
      </trkpt>
      <trkpt lat="43.57832" lon="5.86943">
        <ele>514.5</ele>
        <time>2021-10-18T09:37:07.000Z</time>
      </trkpt>
      <trkpt lat="43.5784" lon="5.86937">
        <ele>514.4</ele>
        <time>2021-10-18T09:37:18.000Z</time>
      </trkpt>
      <trkpt lat="43.57846" lon="5.86928">
        <ele>513.4</ele>
        <time>2021-10-18T09:37:34.000Z</time>
      </trkpt>
      <trkpt lat="43.57856" lon="5.86926">
        <ele>512.4</ele>
        <time>2021-10-18T09:37:53.000Z</time>
      </trkpt>
      <trkpt lat="43.57865" lon="5.86919">
        <ele>511.4</ele>
        <time>2021-10-18T09:38:06.000Z</time>
      </trkpt>
      <trkpt lat="43.5787" lon="5.8691">
        <ele>510.1</ele>
        <time>2021-10-18T09:38:19.000Z</time>
      </trkpt>
      <trkpt lat="43.57878" lon="5.86903">
        <ele>507.6</ele>
        <time>2021-10-18T09:39:41.000Z</time>
      </trkpt>
      <trkpt lat="43.57885" lon="5.86895">
        <ele>507.2</ele>
        <time>2021-10-18T09:39:59.000Z</time>
      </trkpt>
      <trkpt lat="43.57893" lon="5.86888">
        <ele>506</ele>
        <time>2021-10-18T09:40:39.000Z</time>
      </trkpt>
      <trkpt lat="43.579" lon="5.8688">
        <ele>505.5</ele>
        <time>2021-10-18T09:40:53.000Z</time>
      </trkpt>
      <trkpt lat="43.57908" lon="5.86873">
        <ele>504.4</ele>
        <time>2021-10-18T09:41:05.000Z</time>
      </trkpt>
      <trkpt lat="43.57912" lon="5.86861">
        <ele>503.5</ele>
        <time>2021-10-18T09:41:15.000Z</time>
      </trkpt>
      <trkpt lat="43.57916" lon="5.86849">
        <ele>502.4</ele>
        <time>2021-10-18T09:41:25.000Z</time>
      </trkpt>
      <trkpt lat="43.57917" lon="5.86836">
        <ele>501.5</ele>
        <time>2021-10-18T09:41:35.000Z</time>
      </trkpt>
      <trkpt lat="43.5792" lon="5.86823">
        <ele>500.7</ele>
        <time>2021-10-18T09:41:45.000Z</time>
      </trkpt>
      <trkpt lat="43.57922" lon="5.86811">
        <ele>500</ele>
        <time>2021-10-18T09:41:53.000Z</time>
      </trkpt>
      <trkpt lat="43.57926" lon="5.86798">
        <ele>499.5</ele>
        <time>2021-10-18T09:42:02.000Z</time>
      </trkpt>
      <trkpt lat="43.5793" lon="5.86786">
        <ele>498.8</ele>
        <time>2021-10-18T09:42:12.000Z</time>
      </trkpt>
      <trkpt lat="43.57934" lon="5.86773">
        <ele>497.7</ele>
        <time>2021-10-18T09:42:26.000Z</time>
      </trkpt>
      <trkpt lat="43.57938" lon="5.86763">
        <ele>497.3</ele>
        <time>2021-10-18T09:42:36.000Z</time>
      </trkpt>
      <trkpt lat="43.57943" lon="5.86751">
        <ele>496.6</ele>
        <time>2021-10-18T09:42:45.000Z</time>
      </trkpt>
      <trkpt lat="43.57947" lon="5.8674">
        <ele>495.7</ele>
        <time>2021-10-18T09:42:56.000Z</time>
      </trkpt>
      <trkpt lat="43.57951" lon="5.86728">
        <ele>494.6</ele>
        <time>2021-10-18T09:43:09.000Z</time>
      </trkpt>
      <trkpt lat="43.57954" lon="5.86716">
        <ele>494.2</ele>
        <time>2021-10-18T09:43:22.000Z</time>
      </trkpt>
      <trkpt lat="43.57957" lon="5.86703">
        <ele>493.1</ele>
        <time>2021-10-18T09:43:57.000Z</time>
      </trkpt>
      <trkpt lat="43.57961" lon="5.86691">
        <ele>492.8</ele>
        <time>2021-10-18T09:44:07.000Z</time>
      </trkpt>
      <trkpt lat="43.57963" lon="5.86678">
        <ele>492.3</ele>
        <time>2021-10-18T09:44:19.000Z</time>
      </trkpt>
      <trkpt lat="43.57966" lon="5.86665">
        <ele>491.6</ele>
        <time>2021-10-18T09:44:29.000Z</time>
      </trkpt>
      <trkpt lat="43.57969" lon="5.86654">
        <ele>491</ele>
        <time>2021-10-18T09:44:40.000Z</time>
      </trkpt>
      <trkpt lat="43.57973" lon="5.86642">
        <ele>490.5</ele>
        <time>2021-10-18T09:44:49.000Z</time>
      </trkpt>
      <trkpt lat="43.57977" lon="5.86631">
        <ele>490.1</ele>
        <time>2021-10-18T09:44:58.000Z</time>
      </trkpt>
      <trkpt lat="43.5798" lon="5.86618">
        <ele>489.6</ele>
        <time>2021-10-18T09:45:11.000Z</time>
      </trkpt>
      <trkpt lat="43.57984" lon="5.86606">
        <ele>489.4</ele>
        <time>2021-10-18T09:45:23.000Z</time>
      </trkpt>
      <trkpt lat="43.57987" lon="5.86594">
        <ele>488.9</ele>
        <time>2021-10-18T09:45:33.000Z</time>
      </trkpt>
      <trkpt lat="43.57988" lon="5.86581">
        <ele>488.8</ele>
        <time>2021-10-18T09:45:43.000Z</time>
      </trkpt>
      <trkpt lat="43.5799" lon="5.86568">
        <ele>488.5</ele>
        <time>2021-10-18T09:45:53.000Z</time>
      </trkpt>
      <trkpt lat="43.57992" lon="5.86555">
        <ele>488.2</ele>
        <time>2021-10-18T09:46:03.000Z</time>
      </trkpt>
      <trkpt lat="43.57996" lon="5.86543">
        <ele>487.7</ele>
        <time>2021-10-18T09:46:14.000Z</time>
      </trkpt>
      <trkpt lat="43.57999" lon="5.8653">
        <ele>487.3</ele>
        <time>2021-10-18T09:46:24.000Z</time>
      </trkpt>
      <trkpt lat="43.58002" lon="5.86517">
        <ele>486.7</ele>
        <time>2021-10-18T09:46:34.000Z</time>
      </trkpt>
      <trkpt lat="43.58005" lon="5.86505">
        <ele>486.4</ele>
        <time>2021-10-18T09:46:43.000Z</time>
      </trkpt>
      <trkpt lat="43.58008" lon="5.86492">
        <ele>486.2</ele>
        <time>2021-10-18T09:46:52.000Z</time>
      </trkpt>
      <trkpt lat="43.58012" lon="5.8648">
        <ele>486</ele>
        <time>2021-10-18T09:47:02.000Z</time>
      </trkpt>
      <trkpt lat="43.58015" lon="5.86467">
        <ele>485.7</ele>
        <time>2021-10-18T09:47:12.000Z</time>
      </trkpt>
      <trkpt lat="43.5802" lon="5.86456">
        <ele>485.4</ele>
        <time>2021-10-18T09:47:23.000Z</time>
      </trkpt>
      <trkpt lat="43.58021" lon="5.86442">
        <ele>485</ele>
        <time>2021-10-18T09:47:33.000Z</time>
      </trkpt>
      <trkpt lat="43.58023" lon="5.8643">
        <ele>485</ele>
        <time>2021-10-18T09:47:43.000Z</time>
      </trkpt>
      <trkpt lat="43.58025" lon="5.86417">
        <ele>485.1</ele>
        <time>2021-10-18T09:47:52.000Z</time>
      </trkpt>
      <trkpt lat="43.58028" lon="5.86405">
        <ele>485.3</ele>
        <time>2021-10-18T09:48:01.000Z</time>
      </trkpt>
      <trkpt lat="43.58033" lon="5.86394">
        <ele>485.3</ele>
        <time>2021-10-18T09:48:11.000Z</time>
      </trkpt>
      <trkpt lat="43.58038" lon="5.86383">
        <ele>485.1</ele>
        <time>2021-10-18T09:48:21.000Z</time>
      </trkpt>
      <trkpt lat="43.58044" lon="5.86372">
        <ele>484.8</ele>
        <time>2021-10-18T09:48:31.000Z</time>
      </trkpt>
      <trkpt lat="43.5805" lon="5.86361">
        <ele>484.5</ele>
        <time>2021-10-18T09:48:42.000Z</time>
      </trkpt>
      <trkpt lat="43.58056" lon="5.86351">
        <ele>484.1</ele>
        <time>2021-10-18T09:48:53.000Z</time>
      </trkpt>
      <trkpt lat="43.58063" lon="5.86342">
        <ele>483.8</ele>
        <time>2021-10-18T09:49:03.000Z</time>
      </trkpt>
      <trkpt lat="43.5807" lon="5.86334">
        <ele>483.4</ele>
        <time>2021-10-18T09:49:14.000Z</time>
      </trkpt>
      <trkpt lat="43.58076" lon="5.86325">
        <ele>483.1</ele>
        <time>2021-10-18T09:49:24.000Z</time>
      </trkpt>
      <trkpt lat="43.58082" lon="5.86315">
        <ele>482.5</ele>
        <time>2021-10-18T09:49:40.000Z</time>
      </trkpt>
      <trkpt lat="43.58086" lon="5.86304">
        <ele>482.2</ele>
        <time>2021-10-18T09:49:49.000Z</time>
      </trkpt>
      <trkpt lat="43.5809" lon="5.86292">
        <ele>481.9</ele>
        <time>2021-10-18T09:49:59.000Z</time>
      </trkpt>
      <trkpt lat="43.58095" lon="5.86282">
        <ele>481.7</ele>
        <time>2021-10-18T09:50:08.000Z</time>
      </trkpt>
      <trkpt lat="43.58101" lon="5.86271">
        <ele>481.5</ele>
        <time>2021-10-18T09:50:18.000Z</time>
      </trkpt>
      <trkpt lat="43.5811" lon="5.86267">
        <ele>481.1</ele>
        <time>2021-10-18T09:50:30.000Z</time>
      </trkpt>
      <trkpt lat="43.58117" lon="5.86259">
        <ele>480.2</ele>
        <time>2021-10-18T09:50:50.000Z</time>
      </trkpt>
      <trkpt lat="43.58121" lon="5.86247">
        <ele>481.4</ele>
        <time>2021-10-18T09:51:35.000Z</time>
      </trkpt>
      <trkpt lat="43.5812" lon="5.86234">
        <ele>481.5</ele>
        <time>2021-10-18T09:51:48.000Z</time>
      </trkpt>
      <trkpt lat="43.58121" lon="5.86221">
        <ele>482.3</ele>
        <time>2021-10-18T09:52:00.000Z</time>
      </trkpt>
      <trkpt lat="43.58122" lon="5.86209">
        <ele>483.7</ele>
        <time>2021-10-18T09:52:13.000Z</time>
      </trkpt>
      <trkpt lat="43.58118" lon="5.86196">
        <ele>485.3</ele>
        <time>2021-10-18T09:52:27.000Z</time>
      </trkpt>
      <trkpt lat="43.58119" lon="5.86184">
        <ele>486.8</ele>
        <time>2021-10-18T09:52:40.000Z</time>
      </trkpt>
      <trkpt lat="43.58128" lon="5.86179">
        <ele>487.6</ele>
        <time>2021-10-18T09:52:51.000Z</time>
      </trkpt>
      <trkpt lat="43.58137" lon="5.86173">
        <ele>487.8</ele>
        <time>2021-10-18T09:53:02.000Z</time>
      </trkpt>
      <trkpt lat="43.58146" lon="5.86167">
        <ele>487.7</ele>
        <time>2021-10-18T09:53:13.000Z</time>
      </trkpt>
      <trkpt lat="43.58153" lon="5.86159">
        <ele>487.6</ele>
        <time>2021-10-18T09:53:23.000Z</time>
      </trkpt>
      <trkpt lat="43.58161" lon="5.86152">
        <ele>487.2</ele>
        <time>2021-10-18T09:53:34.000Z</time>
      </trkpt>
      <trkpt lat="43.58169" lon="5.86146">
        <ele>486.7</ele>
        <time>2021-10-18T09:53:46.000Z</time>
      </trkpt>
      <trkpt lat="43.58175" lon="5.86135">
        <ele>486.3</ele>
        <time>2021-10-18T09:53:57.000Z</time>
      </trkpt>
      <trkpt lat="43.58183" lon="5.86128">
        <ele>486.2</ele>
        <time>2021-10-18T09:54:08.000Z</time>
      </trkpt>
      <trkpt lat="43.58189" lon="5.8612">
        <ele>485.8</ele>
        <time>2021-10-18T09:54:20.000Z</time>
      </trkpt>
      <trkpt lat="43.58196" lon="5.8611">
        <ele>485.4</ele>
        <time>2021-10-18T09:54:31.000Z</time>
      </trkpt>
      <trkpt lat="43.58203" lon="5.86102">
        <ele>484.7</ele>
        <time>2021-10-18T09:54:42.000Z</time>
      </trkpt>
      <trkpt lat="43.58211" lon="5.86095">
        <ele>484.1</ele>
        <time>2021-10-18T09:54:53.000Z</time>
      </trkpt>
      <trkpt lat="43.5822" lon="5.86093">
        <ele>483.8</ele>
        <time>2021-10-18T09:55:04.000Z</time>
      </trkpt>
      <trkpt lat="43.58229" lon="5.86088">
        <ele>483.2</ele>
        <time>2021-10-18T09:55:16.000Z</time>
      </trkpt>
      <trkpt lat="43.58237" lon="5.86084">
        <ele>482.9</ele>
        <time>2021-10-18T09:55:26.000Z</time>
      </trkpt>
      <trkpt lat="43.58246" lon="5.86079">
        <ele>482.2</ele>
        <time>2021-10-18T09:55:37.000Z</time>
      </trkpt>
      <trkpt lat="43.58254" lon="5.86071">
        <ele>481.7</ele>
        <time>2021-10-18T09:55:49.000Z</time>
      </trkpt>
      <trkpt lat="43.58262" lon="5.86065">
        <ele>481.6</ele>
        <time>2021-10-18T09:55:59.000Z</time>
      </trkpt>
      <trkpt lat="43.5827" lon="5.86056">
        <ele>481.6</ele>
        <time>2021-10-18T09:56:09.000Z</time>
      </trkpt>
      <trkpt lat="43.58278" lon="5.86049">
        <ele>481.4</ele>
        <time>2021-10-18T09:56:19.000Z</time>
      </trkpt>
      <trkpt lat="43.58286" lon="5.86041">
        <ele>481.4</ele>
        <time>2021-10-18T09:56:30.000Z</time>
      </trkpt>
      <trkpt lat="43.58294" lon="5.86035">
        <ele>481.4</ele>
        <time>2021-10-18T09:56:41.000Z</time>
      </trkpt>
      <trkpt lat="43.58302" lon="5.86029">
        <ele>481.4</ele>
        <time>2021-10-18T09:56:51.000Z</time>
      </trkpt>
      <trkpt lat="43.58311" lon="5.86024">
        <ele>481.2</ele>
        <time>2021-10-18T09:57:00.000Z</time>
      </trkpt>
      <trkpt lat="43.58319" lon="5.86017">
        <ele>481</ele>
        <time>2021-10-18T09:57:10.000Z</time>
      </trkpt>
      <trkpt lat="43.58327" lon="5.86011">
        <ele>480.9</ele>
        <time>2021-10-18T09:57:19.000Z</time>
      </trkpt>
      <trkpt lat="43.58335" lon="5.86004">
        <ele>480.7</ele>
        <time>2021-10-18T09:57:28.000Z</time>
      </trkpt>
      <trkpt lat="43.58344" lon="5.85999">
        <ele>480.6</ele>
        <time>2021-10-18T09:57:37.000Z</time>
      </trkpt>
      <trkpt lat="43.58352" lon="5.85994">
        <ele>480.4</ele>
        <time>2021-10-18T09:57:46.000Z</time>
      </trkpt>
      <trkpt lat="43.58361" lon="5.8599">
        <ele>480</ele>
        <time>2021-10-18T09:57:56.000Z</time>
      </trkpt>
      <trkpt lat="43.5837" lon="5.85984">
        <ele>479.8</ele>
        <time>2021-10-18T09:58:05.000Z</time>
      </trkpt>
      <trkpt lat="43.5838" lon="5.85984">
        <ele>479.2</ele>
        <time>2021-10-18T09:58:15.000Z</time>
      </trkpt>
      <trkpt lat="43.58389" lon="5.85981">
        <ele>479</ele>
        <time>2021-10-18T09:58:24.000Z</time>
      </trkpt>
      <trkpt lat="43.58398" lon="5.85976">
        <ele>478.8</ele>
        <time>2021-10-18T09:58:33.000Z</time>
      </trkpt>
      <trkpt lat="43.58407" lon="5.8597">
        <ele>478.8</ele>
        <time>2021-10-18T09:58:42.000Z</time>
      </trkpt>
      <trkpt lat="43.58416" lon="5.85969">
        <ele>478.8</ele>
        <time>2021-10-18T09:58:51.000Z</time>
      </trkpt>
      <trkpt lat="43.58426" lon="5.85969">
        <ele>478.8</ele>
        <time>2021-10-18T09:59:01.000Z</time>
      </trkpt>
      <trkpt lat="43.58436" lon="5.8597">
        <ele>478.8</ele>
        <time>2021-10-18T09:59:10.000Z</time>
      </trkpt>
      <trkpt lat="43.58446" lon="5.8597">
        <ele>478.6</ele>
        <time>2021-10-18T09:59:19.000Z</time>
      </trkpt>
      <trkpt lat="43.58455" lon="5.85967">
        <ele>478.5</ele>
        <time>2021-10-18T09:59:28.000Z</time>
      </trkpt>
      <trkpt lat="43.58464" lon="5.85963">
        <ele>478.5</ele>
        <time>2021-10-18T09:59:36.000Z</time>
      </trkpt>
      <trkpt lat="43.58473" lon="5.85959">
        <ele>478.6</ele>
        <time>2021-10-18T09:59:47.000Z</time>
      </trkpt>
      <trkpt lat="43.58482" lon="5.85954">
        <ele>477.3</ele>
        <time>2021-10-18T10:01:39.000Z</time>
      </trkpt>
      <trkpt lat="43.58488" lon="5.85944">
        <ele>477</ele>
        <time>2021-10-18T10:01:51.000Z</time>
      </trkpt>
      <trkpt lat="43.58486" lon="5.85932">
        <ele>476.9</ele>
        <time>2021-10-18T10:02:01.000Z</time>
      </trkpt>
      <trkpt lat="43.58484" lon="5.85918">
        <ele>477.3</ele>
        <time>2021-10-18T10:02:11.000Z</time>
      </trkpt>
      <trkpt lat="43.58491" lon="5.85911">
        <ele>477.6</ele>
        <time>2021-10-18T10:02:23.000Z</time>
      </trkpt>
      <trkpt lat="43.585" lon="5.85913">
        <ele>478.6</ele>
        <time>2021-10-18T10:02:41.000Z</time>
      </trkpt>
      <trkpt lat="43.58509" lon="5.85915">
        <ele>479.1</ele>
        <time>2021-10-18T10:02:52.000Z</time>
      </trkpt>
      <trkpt lat="43.58518" lon="5.85912">
        <ele>480.2</ele>
        <time>2021-10-18T10:03:03.000Z</time>
      </trkpt>
      <trkpt lat="43.58527" lon="5.8591">
        <ele>481.2</ele>
        <time>2021-10-18T10:03:13.000Z</time>
      </trkpt>
      <trkpt lat="43.58536" lon="5.85904">
        <ele>482.4</ele>
        <time>2021-10-18T10:03:24.000Z</time>
      </trkpt>
      <trkpt lat="43.58544" lon="5.85898">
        <ele>483.6</ele>
        <time>2021-10-18T10:03:35.000Z</time>
      </trkpt>
      <trkpt lat="43.58549" lon="5.85888">
        <ele>484.8</ele>
        <time>2021-10-18T10:03:46.000Z</time>
      </trkpt>
      <trkpt lat="43.58557" lon="5.85881">
        <ele>485.9</ele>
        <time>2021-10-18T10:03:57.000Z</time>
      </trkpt>
      <trkpt lat="43.58565" lon="5.85874">
        <ele>487.2</ele>
        <time>2021-10-18T10:04:10.000Z</time>
      </trkpt>
      <trkpt lat="43.58573" lon="5.85868">
        <ele>488.8</ele>
        <time>2021-10-18T10:04:29.000Z</time>
      </trkpt>
      <trkpt lat="43.58581" lon="5.85862">
        <ele>489.5</ele>
        <time>2021-10-18T10:04:40.000Z</time>
      </trkpt>
      <trkpt lat="43.58589" lon="5.85855">
        <ele>490.4</ele>
        <time>2021-10-18T10:04:52.000Z</time>
      </trkpt>
      <trkpt lat="43.58596" lon="5.85846">
        <ele>491.5</ele>
        <time>2021-10-18T10:05:03.000Z</time>
      </trkpt>
      <trkpt lat="43.58603" lon="5.85837">
        <ele>492.4</ele>
        <time>2021-10-18T10:05:13.000Z</time>
      </trkpt>
      <trkpt lat="43.58611" lon="5.8583">
        <ele>493.5</ele>
        <time>2021-10-18T10:05:24.000Z</time>
      </trkpt>
      <trkpt lat="43.58619" lon="5.85824">
        <ele>494.6</ele>
        <time>2021-10-18T10:05:35.000Z</time>
      </trkpt>
      <trkpt lat="43.58628" lon="5.85818">
        <ele>495.7</ele>
        <time>2021-10-18T10:05:48.000Z</time>
      </trkpt>
      <trkpt lat="43.58638" lon="5.85812">
        <ele>497</ele>
        <time>2021-10-18T10:06:00.000Z</time>
      </trkpt>
      <trkpt lat="43.58647" lon="5.85808">
        <ele>498.1</ele>
        <time>2021-10-18T10:06:11.000Z</time>
      </trkpt>
      <trkpt lat="43.58656" lon="5.85804">
        <ele>499.2</ele>
        <time>2021-10-18T10:06:21.000Z</time>
      </trkpt>
      <trkpt lat="43.58664" lon="5.85799">
        <ele>500.4</ele>
        <time>2021-10-18T10:06:33.000Z</time>
      </trkpt>
      <trkpt lat="43.58669" lon="5.85787">
        <ele>501.5</ele>
        <time>2021-10-18T10:06:45.000Z</time>
      </trkpt>
      <trkpt lat="43.58665" lon="5.85775">
        <ele>502.8</ele>
        <time>2021-10-18T10:06:56.000Z</time>
      </trkpt>
      <trkpt lat="43.58661" lon="5.85763">
        <ele>504.1</ele>
        <time>2021-10-18T10:07:08.000Z</time>
      </trkpt>
      <trkpt lat="43.58659" lon="5.8575">
        <ele>505.1</ele>
        <time>2021-10-18T10:07:20.000Z</time>
      </trkpt>
      <trkpt lat="43.58663" lon="5.85739">
        <ele>506.2</ele>
        <time>2021-10-18T10:07:33.000Z</time>
      </trkpt>
      <trkpt lat="43.58669" lon="5.85729">
        <ele>507.2</ele>
        <time>2021-10-18T10:07:47.000Z</time>
      </trkpt>
      <trkpt lat="43.58676" lon="5.8572">
        <ele>507.9</ele>
        <time>2021-10-18T10:07:58.000Z</time>
      </trkpt>
      <trkpt lat="43.58682" lon="5.8571">
        <ele>508.3</ele>
        <time>2021-10-18T10:08:09.000Z</time>
      </trkpt>
      <trkpt lat="43.58689" lon="5.85702">
        <ele>508.8</ele>
        <time>2021-10-18T10:08:21.000Z</time>
      </trkpt>
      <trkpt lat="43.58696" lon="5.85693">
        <ele>508.6</ele>
        <time>2021-10-18T10:10:46.000Z</time>
      </trkpt>
      <trkpt lat="43.58705" lon="5.85688">
        <ele>508.6</ele>
        <time>2021-10-18T10:10:58.000Z</time>
      </trkpt>
      <trkpt lat="43.58713" lon="5.85682">
        <ele>508.6</ele>
        <time>2021-10-18T10:11:09.000Z</time>
      </trkpt>
      <trkpt lat="43.5872" lon="5.85673">
        <ele>508.6</ele>
        <time>2021-10-18T10:11:18.000Z</time>
      </trkpt>
      <trkpt lat="43.58723" lon="5.85661">
        <ele>508.4</ele>
        <time>2021-10-18T10:11:27.000Z</time>
      </trkpt>
      <trkpt lat="43.58728" lon="5.85651">
        <ele>508.3</ele>
        <time>2021-10-18T10:11:36.000Z</time>
      </trkpt>
      <trkpt lat="43.58734" lon="5.8564">
        <ele>508</ele>
        <time>2021-10-18T10:11:46.000Z</time>
      </trkpt>
      <trkpt lat="43.58741" lon="5.85631">
        <ele>507.5</ele>
        <time>2021-10-18T10:11:57.000Z</time>
      </trkpt>
      <trkpt lat="43.58748" lon="5.85623">
        <ele>507.1</ele>
        <time>2021-10-18T10:12:07.000Z</time>
      </trkpt>
      <trkpt lat="43.58756" lon="5.85616">
        <ele>506.6</ele>
        <time>2021-10-18T10:12:16.000Z</time>
      </trkpt>
      <trkpt lat="43.58762" lon="5.85607">
        <ele>506.1</ele>
        <time>2021-10-18T10:12:26.000Z</time>
      </trkpt>
      <trkpt lat="43.58769" lon="5.85598">
        <ele>504.8</ele>
        <time>2021-10-18T10:12:48.000Z</time>
      </trkpt>
      <trkpt lat="43.58775" lon="5.85587">
        <ele>504.3</ele>
        <time>2021-10-18T10:13:16.000Z</time>
      </trkpt>
      <trkpt lat="43.58781" lon="5.85578">
        <ele>504</ele>
        <time>2021-10-18T10:13:30.000Z</time>
      </trkpt>
      <trkpt lat="43.58788" lon="5.85568">
        <ele>503.2</ele>
        <time>2021-10-18T10:13:42.000Z</time>
      </trkpt>
      <trkpt lat="43.58795" lon="5.85558">
        <ele>501.9</ele>
        <time>2021-10-18T10:13:54.000Z</time>
      </trkpt>
      <trkpt lat="43.58801" lon="5.85548">
        <ele>500.7</ele>
        <time>2021-10-18T10:14:05.000Z</time>
      </trkpt>
      <trkpt lat="43.58807" lon="5.85539">
        <ele>499.8</ele>
        <time>2021-10-18T10:14:17.000Z</time>
      </trkpt>
      <trkpt lat="43.58815" lon="5.85532">
        <ele>498.9</ele>
        <time>2021-10-18T10:14:28.000Z</time>
      </trkpt>
      <trkpt lat="43.58823" lon="5.85525">
        <ele>497.9</ele>
        <time>2021-10-18T10:14:40.000Z</time>
      </trkpt>
      <trkpt lat="43.58831" lon="5.85518">
        <ele>496.9</ele>
        <time>2021-10-18T10:14:50.000Z</time>
      </trkpt>
      <trkpt lat="43.5884" lon="5.85512">
        <ele>495.9</ele>
        <time>2021-10-18T10:15:17.000Z</time>
      </trkpt>
      <trkpt lat="43.58849" lon="5.8551">
        <ele>495.5</ele>
        <time>2021-10-18T10:15:27.000Z</time>
      </trkpt>
      <trkpt lat="43.58858" lon="5.85508">
        <ele>495.1</ele>
        <time>2021-10-18T10:15:36.000Z</time>
      </trkpt>
      <trkpt lat="43.58867" lon="5.85504">
        <ele>494.7</ele>
        <time>2021-10-18T10:15:45.000Z</time>
      </trkpt>
      <trkpt lat="43.58877" lon="5.85501">
        <ele>494.3</ele>
        <time>2021-10-18T10:15:54.000Z</time>
      </trkpt>
      <trkpt lat="43.58885" lon="5.85499">
        <ele>493.7</ele>
        <time>2021-10-18T10:16:03.000Z</time>
      </trkpt>
      <trkpt lat="43.58895" lon="5.85497">
        <ele>493</ele>
        <time>2021-10-18T10:16:12.000Z</time>
      </trkpt>
      <trkpt lat="43.58905" lon="5.85495">
        <ele>492.2</ele>
        <time>2021-10-18T10:16:22.000Z</time>
      </trkpt>
      <trkpt lat="43.58914" lon="5.85492">
        <ele>490.9</ele>
        <time>2021-10-18T10:16:33.000Z</time>
      </trkpt>
      <trkpt lat="43.58924" lon="5.85491">
        <ele>489.9</ele>
        <time>2021-10-18T10:16:43.000Z</time>
      </trkpt>
      <trkpt lat="43.58934" lon="5.85489">
        <ele>489</ele>
        <time>2021-10-18T10:16:52.000Z</time>
      </trkpt>
      <trkpt lat="43.58943" lon="5.85483">
        <ele>487.9</ele>
        <time>2021-10-18T10:17:05.000Z</time>
      </trkpt>
      <trkpt lat="43.5895" lon="5.85476">
        <ele>487.2</ele>
        <time>2021-10-18T10:17:15.000Z</time>
      </trkpt>
      <trkpt lat="43.58958" lon="5.85469">
        <ele>486.3</ele>
        <time>2021-10-18T10:17:25.000Z</time>
      </trkpt>
      <trkpt lat="43.58966" lon="5.85461">
        <ele>485.9</ele>
        <time>2021-10-18T10:17:34.000Z</time>
      </trkpt>
      <trkpt lat="43.58973" lon="5.85453">
        <ele>485.7</ele>
        <time>2021-10-18T10:17:43.000Z</time>
      </trkpt>
      <trkpt lat="43.58982" lon="5.85448">
        <ele>485.6</ele>
        <time>2021-10-18T10:17:52.000Z</time>
      </trkpt>
      <trkpt lat="43.5899" lon="5.85443">
        <ele>486</ele>
        <time>2021-10-18T10:18:02.000Z</time>
      </trkpt>
      <trkpt lat="43.58999" lon="5.85438">
        <ele>486.2</ele>
        <time>2021-10-18T10:18:10.000Z</time>
      </trkpt>
      <trkpt lat="43.59008" lon="5.85434">
        <ele>486.3</ele>
        <time>2021-10-18T10:18:17.000Z</time>
      </trkpt>
      <trkpt lat="43.59017" lon="5.85431">
        <ele>486.4</ele>
        <time>2021-10-18T10:18:25.000Z</time>
      </trkpt>
      <trkpt lat="43.59025" lon="5.85425">
        <ele>486.4</ele>
        <time>2021-10-18T10:18:34.000Z</time>
      </trkpt>
      <trkpt lat="43.59033" lon="5.85419">
        <ele>486.4</ele>
        <time>2021-10-18T10:18:42.000Z</time>
      </trkpt>
      <trkpt lat="43.59042" lon="5.85413">
        <ele>486.3</ele>
        <time>2021-10-18T10:18:51.000Z</time>
      </trkpt>
      <trkpt lat="43.59049" lon="5.85405">
        <ele>486.2</ele>
        <time>2021-10-18T10:19:00.000Z</time>
      </trkpt>
      <trkpt lat="43.59058" lon="5.854">
        <ele>486.1</ele>
        <time>2021-10-18T10:19:09.000Z</time>
      </trkpt>
      <trkpt lat="43.59067" lon="5.85392">
        <ele>485.8</ele>
        <time>2021-10-18T10:19:19.000Z</time>
      </trkpt>
      <trkpt lat="43.59075" lon="5.85386">
        <ele>485.3</ele>
        <time>2021-10-18T10:19:29.000Z</time>
      </trkpt>
      <trkpt lat="43.59083" lon="5.8538">
        <ele>484.5</ele>
        <time>2021-10-18T10:19:38.000Z</time>
      </trkpt>
      <trkpt lat="43.59092" lon="5.85373">
        <ele>483.6</ele>
        <time>2021-10-18T10:19:46.000Z</time>
      </trkpt>
      <trkpt lat="43.59099" lon="5.85365">
        <ele>483</ele>
        <time>2021-10-18T10:19:55.000Z</time>
      </trkpt>
      <trkpt lat="43.59107" lon="5.85356">
        <ele>482.3</ele>
        <time>2021-10-18T10:20:04.000Z</time>
      </trkpt>
      <trkpt lat="43.59114" lon="5.85348">
        <ele>481.7</ele>
        <time>2021-10-18T10:20:14.000Z</time>
      </trkpt>
      <trkpt lat="43.59123" lon="5.85343">
        <ele>481.5</ele>
        <time>2021-10-18T10:20:20.000Z</time>
      </trkpt>
      <trkpt lat="43.59129" lon="5.85332">
        <ele>481</ele>
        <time>2021-10-18T10:20:29.000Z</time>
      </trkpt>
      <trkpt lat="43.59138" lon="5.8533">
        <ele>480.8</ele>
        <time>2021-10-18T10:20:50.000Z</time>
      </trkpt>
      <trkpt lat="43.59136" lon="5.85342">
        <ele>477.7</ele>
        <time>2021-10-18T10:22:21.000Z</time>
      </trkpt>
      <trkpt lat="43.59133" lon="5.85353">
        <ele>474.8</ele>
        <time>2021-10-18T10:22:45.000Z</time>
      </trkpt>
      <trkpt lat="43.59131" lon="5.85366">
        <ele>473.2</ele>
        <time>2021-10-18T10:25:01.000Z</time>
      </trkpt>
      <trkpt lat="43.59131" lon="5.85379">
        <ele>471.9</ele>
        <time>2021-10-18T10:25:12.000Z</time>
      </trkpt>
      <trkpt lat="43.59135" lon="5.85391">
        <ele>470.5</ele>
        <time>2021-10-18T10:25:23.000Z</time>
      </trkpt>
      <trkpt lat="43.59138" lon="5.85403">
        <ele>468.8</ele>
        <time>2021-10-18T10:25:34.000Z</time>
      </trkpt>
      <trkpt lat="43.59139" lon="5.85416">
        <ele>467.1</ele>
        <time>2021-10-18T10:25:45.000Z</time>
      </trkpt>
      <trkpt lat="43.59132" lon="5.85424">
        <ele>465.4</ele>
        <time>2021-10-18T10:25:58.000Z</time>
      </trkpt>
      <trkpt lat="43.59125" lon="5.85434">
        <ele>464</ele>
        <time>2021-10-18T10:26:08.000Z</time>
      </trkpt>
      <trkpt lat="43.59119" lon="5.85443">
        <ele>463</ele>
        <time>2021-10-18T10:26:16.000Z</time>
      </trkpt>
      <trkpt lat="43.59112" lon="5.85454">
        <ele>461.7</ele>
        <time>2021-10-18T10:26:25.000Z</time>
      </trkpt>
      <trkpt lat="43.59109" lon="5.85466">
        <ele>460.9</ele>
        <time>2021-10-18T10:26:34.000Z</time>
      </trkpt>
      <trkpt lat="43.59114" lon="5.85477">
        <ele>460.1</ele>
        <time>2021-10-18T10:26:44.000Z</time>
      </trkpt>
      <trkpt lat="43.5912" lon="5.85487">
        <ele>460.1</ele>
        <time>2021-10-18T10:26:54.000Z</time>
      </trkpt>
      <trkpt lat="43.59125" lon="5.85498">
        <ele>461.1</ele>
        <time>2021-10-18T10:27:06.000Z</time>
      </trkpt>
      <trkpt lat="43.59128" lon="5.85511">
        <ele>462.3</ele>
        <time>2021-10-18T10:27:19.000Z</time>
      </trkpt>
      <trkpt lat="43.59132" lon="5.85522">
        <ele>463.5</ele>
        <time>2021-10-18T10:27:29.000Z</time>
      </trkpt>
      <trkpt lat="43.59136" lon="5.85535">
        <ele>464.1</ele>
        <time>2021-10-18T10:27:39.000Z</time>
      </trkpt>
      <trkpt lat="43.5914" lon="5.85546">
        <ele>464.1</ele>
        <time>2021-10-18T10:27:50.000Z</time>
      </trkpt>
      <trkpt lat="43.59145" lon="5.85558">
        <ele>468.7</ele>
        <time>2021-10-18T10:28:00.000Z</time>
      </trkpt>
      <trkpt lat="43.59145" lon="5.8557">
        <ele>468</ele>
        <time>2021-10-18T10:28:09.000Z</time>
      </trkpt>
      <trkpt lat="43.59146" lon="5.85584">
        <ele>470.4</ele>
        <time>2021-10-18T10:28:23.000Z</time>
      </trkpt>
      <trkpt lat="43.59146" lon="5.85596">
        <ele>471.8</ele>
        <time>2021-10-18T10:28:35.000Z</time>
      </trkpt>
      <trkpt lat="43.59151" lon="5.85607">
        <ele>474.5</ele>
        <time>2021-10-18T10:29:07.000Z</time>
      </trkpt>
      <trkpt lat="43.59156" lon="5.85617">
        <ele>474.5</ele>
        <time>2021-10-18T10:29:37.000Z</time>
      </trkpt>
      <trkpt lat="43.59158" lon="5.8563">
        <ele>474.6</ele>
        <time>2021-10-18T10:29:48.000Z</time>
      </trkpt>
      <trkpt lat="43.59161" lon="5.85642">
        <ele>474.9</ele>
        <time>2021-10-18T10:29:58.000Z</time>
      </trkpt>
      <trkpt lat="43.59164" lon="5.85654">
        <ele>475.3</ele>
        <time>2021-10-18T10:30:10.000Z</time>
      </trkpt>
      <trkpt lat="43.59167" lon="5.85667">
        <ele>475.7</ele>
        <time>2021-10-18T10:30:19.000Z</time>
      </trkpt>
      <trkpt lat="43.59168" lon="5.8568">
        <ele>475.9</ele>
        <time>2021-10-18T10:30:28.000Z</time>
      </trkpt>
      <trkpt lat="43.5917" lon="5.85693">
        <ele>475.8</ele>
        <time>2021-10-18T10:30:37.000Z</time>
      </trkpt>
      <trkpt lat="43.59173" lon="5.85706">
        <ele>476.8</ele>
        <time>2021-10-18T10:30:47.000Z</time>
      </trkpt>
      <trkpt lat="43.59178" lon="5.85717">
        <ele>476.6</ele>
        <time>2021-10-18T10:30:57.000Z</time>
      </trkpt>
      <trkpt lat="43.59183" lon="5.85727">
        <ele>476.4</ele>
        <time>2021-10-18T10:31:05.000Z</time>
      </trkpt>
      <trkpt lat="43.59189" lon="5.85738">
        <ele>476.1</ele>
        <time>2021-10-18T10:31:13.000Z</time>
      </trkpt>
      <trkpt lat="43.59192" lon="5.8575">
        <ele>475.8</ele>
        <time>2021-10-18T10:31:21.000Z</time>
      </trkpt>
      <trkpt lat="43.59196" lon="5.85763">
        <ele>475.6</ele>
        <time>2021-10-18T10:31:30.000Z</time>
      </trkpt>
      <trkpt lat="43.59199" lon="5.85776">
        <ele>475.5</ele>
        <time>2021-10-18T10:31:40.000Z</time>
      </trkpt>
      <trkpt lat="43.59203" lon="5.85787">
        <ele>475.4</ele>
        <time>2021-10-18T10:31:49.000Z</time>
      </trkpt>
      <trkpt lat="43.59208" lon="5.85798">
        <ele>475.2</ele>
        <time>2021-10-18T10:31:58.000Z</time>
      </trkpt>
      <trkpt lat="43.59213" lon="5.85809">
        <ele>474.6</ele>
        <time>2021-10-18T10:32:07.000Z</time>
      </trkpt>
      <trkpt lat="43.59217" lon="5.8582">
        <ele>473.8</ele>
        <time>2021-10-18T10:32:17.000Z</time>
      </trkpt>
      <trkpt lat="43.59221" lon="5.85832">
        <ele>473.1</ele>
        <time>2021-10-18T10:32:27.000Z</time>
      </trkpt>
      <trkpt lat="43.59226" lon="5.85843">
        <ele>472.2</ele>
        <time>2021-10-18T10:32:37.000Z</time>
      </trkpt>
      <trkpt lat="43.5923" lon="5.85854">
        <ele>471.2</ele>
        <time>2021-10-18T10:32:47.000Z</time>
      </trkpt>
      <trkpt lat="43.59234" lon="5.85867">
        <ele>470.3</ele>
        <time>2021-10-18T10:32:58.000Z</time>
      </trkpt>
      <trkpt lat="43.59238" lon="5.85878">
        <ele>469.3</ele>
        <time>2021-10-18T10:33:08.000Z</time>
      </trkpt>
      <trkpt lat="43.59244" lon="5.85888">
        <ele>468.1</ele>
        <time>2021-10-18T10:33:18.000Z</time>
      </trkpt>
      <trkpt lat="43.59246" lon="5.85902">
        <ele>467.2</ele>
        <time>2021-10-18T10:33:29.000Z</time>
      </trkpt>
      <trkpt lat="43.59248" lon="5.85914">
        <ele>466.6</ele>
        <time>2021-10-18T10:33:39.000Z</time>
      </trkpt>
      <trkpt lat="43.59253" lon="5.85925">
        <ele>466</ele>
        <time>2021-10-18T10:33:49.000Z</time>
      </trkpt>
      <trkpt lat="43.59259" lon="5.85936">
        <ele>465.6</ele>
        <time>2021-10-18T10:33:58.000Z</time>
      </trkpt>
      <trkpt lat="43.59267" lon="5.85943">
        <ele>465.3</ele>
        <time>2021-10-18T10:34:08.000Z</time>
      </trkpt>
      <trkpt lat="43.59274" lon="5.85951">
        <ele>465.1</ele>
        <time>2021-10-18T10:34:18.000Z</time>
      </trkpt>
      <trkpt lat="43.5928" lon="5.85962">
        <ele>464.6</ele>
        <time>2021-10-18T10:34:28.000Z</time>
      </trkpt>
      <trkpt lat="43.59287" lon="5.85972">
        <ele>464.2</ele>
        <time>2021-10-18T10:34:38.000Z</time>
      </trkpt>
      <trkpt lat="43.59294" lon="5.85981">
        <ele>463.6</ele>
        <time>2021-10-18T10:34:48.000Z</time>
      </trkpt>
      <trkpt lat="43.59299" lon="5.85992">
        <ele>462.4</ele>
        <time>2021-10-18T10:35:05.000Z</time>
      </trkpt>
      <trkpt lat="43.59302" lon="5.86005">
        <ele>461.5</ele>
        <time>2021-10-18T10:35:20.000Z</time>
      </trkpt>
      <trkpt lat="43.59304" lon="5.86017">
        <ele>460.2</ele>
        <time>2021-10-18T10:35:36.000Z</time>
      </trkpt>
      <trkpt lat="43.59308" lon="5.86029">
        <ele>459.5</ele>
        <time>2021-10-18T10:35:47.000Z</time>
      </trkpt>
      <trkpt lat="43.59308" lon="5.86042">
        <ele>458.5</ele>
        <time>2021-10-18T10:35:59.000Z</time>
      </trkpt>
      <trkpt lat="43.5931" lon="5.86054">
        <ele>457</ele>
        <time>2021-10-18T10:36:12.000Z</time>
      </trkpt>
      <trkpt lat="43.59311" lon="5.86067">
        <ele>455.7</ele>
        <time>2021-10-18T10:36:28.000Z</time>
      </trkpt>
      <trkpt lat="43.59312" lon="5.8608">
        <ele>454.4</ele>
        <time>2021-10-18T10:36:40.000Z</time>
      </trkpt>
      <trkpt lat="43.59311" lon="5.86093">
        <ele>452.9</ele>
        <time>2021-10-18T10:36:53.000Z</time>
      </trkpt>
      <trkpt lat="43.5931" lon="5.86106">
        <ele>452.1</ele>
        <time>2021-10-18T10:37:04.000Z</time>
      </trkpt>
      <trkpt lat="43.59309" lon="5.86118">
        <ele>451.1</ele>
        <time>2021-10-18T10:37:18.000Z</time>
      </trkpt>
      <trkpt lat="43.59308" lon="5.86131">
        <ele>450.5</ele>
        <time>2021-10-18T10:37:30.000Z</time>
      </trkpt>
      <trkpt lat="43.59309" lon="5.86144">
        <ele>449.8</ele>
        <time>2021-10-18T10:37:40.000Z</time>
      </trkpt>
      <trkpt lat="43.5931" lon="5.86157">
        <ele>449.4</ele>
        <time>2021-10-18T10:37:51.000Z</time>
      </trkpt>
      <trkpt lat="43.59311" lon="5.86169">
        <ele>448.6</ele>
        <time>2021-10-18T10:38:07.000Z</time>
      </trkpt>
      <trkpt lat="43.59312" lon="5.86183">
        <ele>447.7</ele>
        <time>2021-10-18T10:38:20.000Z</time>
      </trkpt>
      <trkpt lat="43.59314" lon="5.86195">
        <ele>446.6</ele>
        <time>2021-10-18T10:38:31.000Z</time>
      </trkpt>
      <trkpt lat="43.59315" lon="5.86207">
        <ele>445.6</ele>
        <time>2021-10-18T10:38:42.000Z</time>
      </trkpt>
      <trkpt lat="43.59314" lon="5.8622">
        <ele>444.9</ele>
        <time>2021-10-18T10:38:54.000Z</time>
      </trkpt>
      <trkpt lat="43.59314" lon="5.86233">
        <ele>444.3</ele>
        <time>2021-10-18T10:39:06.000Z</time>
      </trkpt>
      <trkpt lat="43.59312" lon="5.86246">
        <ele>443.8</ele>
        <time>2021-10-18T10:39:16.000Z</time>
      </trkpt>
      <trkpt lat="43.59313" lon="5.86259">
        <ele>443.1</ele>
        <time>2021-10-18T10:39:25.000Z</time>
      </trkpt>
      <trkpt lat="43.59317" lon="5.8627">
        <ele>442.2</ele>
        <time>2021-10-18T10:39:36.000Z</time>
      </trkpt>
      <trkpt lat="43.5932" lon="5.86282">
        <ele>440</ele>
        <time>2021-10-18T10:40:03.000Z</time>
      </trkpt>
      <trkpt lat="43.59326" lon="5.86292">
        <ele>437.8</ele>
        <time>2021-10-18T10:40:23.000Z</time>
      </trkpt>
      <trkpt lat="43.59335" lon="5.86296">
        <ele>436.2</ele>
        <time>2021-10-18T10:40:43.000Z</time>
      </trkpt>
      <trkpt lat="43.59342" lon="5.86303">
        <ele>436</ele>
        <time>2021-10-18T10:41:10.000Z</time>
      </trkpt>
      <trkpt lat="43.59348" lon="5.86313">
        <ele>436.7</ele>
        <time>2021-10-18T10:41:27.000Z</time>
      </trkpt>
      <trkpt lat="43.59355" lon="5.86322">
        <ele>437.7</ele>
        <time>2021-10-18T10:41:39.000Z</time>
      </trkpt>
      <trkpt lat="43.59363" lon="5.8633">
        <ele>438.6</ele>
        <time>2021-10-18T10:41:52.000Z</time>
      </trkpt>
      <trkpt lat="43.5937" lon="5.86339">
        <ele>438.6</ele>
        <time>2021-10-18T10:42:05.000Z</time>
      </trkpt>
      <trkpt lat="43.59369" lon="5.86327">
        <ele>437</ele>
        <time>2021-10-18T10:45:56.000Z</time>
      </trkpt>
      <trkpt lat="43.59375" lon="5.86336">
        <ele>438.4</ele>
        <time>2021-10-18T11:06:37.000Z</time>
      </trkpt>
      <trkpt lat="43.59366" lon="5.8633">
        <ele>441.2</ele>
        <time>2021-10-18T11:28:26.000Z</time>
      </trkpt>
      <trkpt lat="43.59358" lon="5.86324">
        <ele>441.3</ele>
        <time>2021-10-18T11:28:37.000Z</time>
      </trkpt>
      <trkpt lat="43.59351" lon="5.86317">
        <ele>441.7</ele>
        <time>2021-10-18T11:28:49.000Z</time>
      </trkpt>
      <trkpt lat="43.59345" lon="5.86308">
        <ele>440.9</ele>
        <time>2021-10-18T11:29:01.000Z</time>
      </trkpt>
      <trkpt lat="43.59337" lon="5.863">
        <ele>440</ele>
        <time>2021-10-18T11:29:11.000Z</time>
      </trkpt>
      <trkpt lat="43.5933" lon="5.86307">
        <ele>438.3</ele>
        <time>2021-10-18T11:29:31.000Z</time>
      </trkpt>
      <trkpt lat="43.59332" lon="5.8632">
        <ele>436.9</ele>
        <time>2021-10-18T11:29:44.000Z</time>
      </trkpt>
      <trkpt lat="43.59333" lon="5.86332">
        <ele>435.3</ele>
        <time>2021-10-18T11:29:56.000Z</time>
      </trkpt>
      <trkpt lat="43.59333" lon="5.86345">
        <ele>434</ele>
        <time>2021-10-18T11:30:09.000Z</time>
      </trkpt>
      <trkpt lat="43.59333" lon="5.86358">
        <ele>432.7</ele>
        <time>2021-10-18T11:30:21.000Z</time>
      </trkpt>
      <trkpt lat="43.59335" lon="5.8637">
        <ele>431.4</ele>
        <time>2021-10-18T11:30:33.000Z</time>
      </trkpt>
      <trkpt lat="43.59337" lon="5.86383">
        <ele>430.4</ele>
        <time>2021-10-18T11:30:43.000Z</time>
      </trkpt>
      <trkpt lat="43.59338" lon="5.86396">
        <ele>429.2</ele>
        <time>2021-10-18T11:30:55.000Z</time>
      </trkpt>
      <trkpt lat="43.5934" lon="5.86408">
        <ele>428</ele>
        <time>2021-10-18T11:31:06.000Z</time>
      </trkpt>
      <trkpt lat="43.59342" lon="5.86421">
        <ele>427</ele>
        <time>2021-10-18T11:31:17.000Z</time>
      </trkpt>
      <trkpt lat="43.59343" lon="5.86435">
        <ele>426.1</ele>
        <time>2021-10-18T11:31:27.000Z</time>
      </trkpt>
      <trkpt lat="43.59342" lon="5.86448">
        <ele>425.2</ele>
        <time>2021-10-18T11:31:37.000Z</time>
      </trkpt>
      <trkpt lat="43.59342" lon="5.86462">
        <ele>424.3</ele>
        <time>2021-10-18T11:31:48.000Z</time>
      </trkpt>
      <trkpt lat="43.59336" lon="5.86472">
        <ele>423.2</ele>
        <time>2021-10-18T11:31:59.000Z</time>
      </trkpt>
      <trkpt lat="43.59331" lon="5.86483">
        <ele>421.8</ele>
        <time>2021-10-18T11:32:17.000Z</time>
      </trkpt>
      <trkpt lat="43.5933" lon="5.86495">
        <ele>421.3</ele>
        <time>2021-10-18T11:32:33.000Z</time>
      </trkpt>
      <trkpt lat="43.59326" lon="5.86507">
        <ele>423.9</ele>
        <time>2021-10-18T11:32:50.000Z</time>
      </trkpt>
      <trkpt lat="43.59322" lon="5.86518">
        <ele>425.5</ele>
        <time>2021-10-18T11:33:05.000Z</time>
      </trkpt>
      <trkpt lat="43.59322" lon="5.86531">
        <ele>427.2</ele>
        <time>2021-10-18T11:34:24.000Z</time>
      </trkpt>
      <trkpt lat="43.59322" lon="5.86544">
        <ele>427.5</ele>
        <time>2021-10-18T11:34:36.000Z</time>
      </trkpt>
      <trkpt lat="43.59321" lon="5.86557">
        <ele>428.5</ele>
        <time>2021-10-18T11:34:48.000Z</time>
      </trkpt>
      <trkpt lat="43.5932" lon="5.8657">
        <ele>429.6</ele>
        <time>2021-10-18T11:34:59.000Z</time>
      </trkpt>
      <trkpt lat="43.59321" lon="5.86582">
        <ele>430.5</ele>
        <time>2021-10-18T11:35:09.000Z</time>
      </trkpt>
      <trkpt lat="43.59319" lon="5.86596">
        <ele>431.4</ele>
        <time>2021-10-18T11:35:21.000Z</time>
      </trkpt>
      <trkpt lat="43.59318" lon="5.86609">
        <ele>432.6</ele>
        <time>2021-10-18T11:35:35.000Z</time>
      </trkpt>
      <trkpt lat="43.5932" lon="5.86622">
        <ele>433.4</ele>
        <time>2021-10-18T11:35:45.000Z</time>
      </trkpt>
      <trkpt lat="43.59324" lon="5.86635">
        <ele>434.2</ele>
        <time>2021-10-18T11:35:56.000Z</time>
      </trkpt>
      <trkpt lat="43.59323" lon="5.86648">
        <ele>435.1</ele>
        <time>2021-10-18T11:36:06.000Z</time>
      </trkpt>
      <trkpt lat="43.59327" lon="5.8666">
        <ele>436.5</ele>
        <time>2021-10-18T11:36:17.000Z</time>
      </trkpt>
      <trkpt lat="43.59331" lon="5.86671">
        <ele>438.8</ele>
        <time>2021-10-18T11:36:33.000Z</time>
      </trkpt>
      <trkpt lat="43.59333" lon="5.86684">
        <ele>439.6</ele>
        <time>2021-10-18T11:36:43.000Z</time>
      </trkpt>
      <trkpt lat="43.59333" lon="5.86696">
        <ele>440.4</ele>
        <time>2021-10-18T11:36:52.000Z</time>
      </trkpt>
      <trkpt lat="43.59333" lon="5.86709">
        <ele>441.6</ele>
        <time>2021-10-18T11:37:03.000Z</time>
      </trkpt>
      <trkpt lat="43.59332" lon="5.86722">
        <ele>442.5</ele>
        <time>2021-10-18T11:37:14.000Z</time>
      </trkpt>
      <trkpt lat="43.59327" lon="5.86733">
        <ele>443.4</ele>
        <time>2021-10-18T11:37:25.000Z</time>
      </trkpt>
      <trkpt lat="43.59324" lon="5.86745">
        <ele>444.3</ele>
        <time>2021-10-18T11:37:37.000Z</time>
      </trkpt>
      <trkpt lat="43.59321" lon="5.86757">
        <ele>444.4</ele>
        <time>2021-10-18T11:37:48.000Z</time>
      </trkpt>
      <trkpt lat="43.59318" lon="5.8677">
        <ele>443.5</ele>
        <time>2021-10-18T11:37:59.000Z</time>
      </trkpt>
      <trkpt lat="43.59314" lon="5.86782">
        <ele>446</ele>
        <time>2021-10-18T11:38:08.000Z</time>
      </trkpt>
      <trkpt lat="43.59311" lon="5.86794">
        <ele>449.6</ele>
        <time>2021-10-18T11:38:17.000Z</time>
      </trkpt>
      <trkpt lat="43.59308" lon="5.86806">
        <ele>448.6</ele>
        <time>2021-10-18T11:38:26.000Z</time>
      </trkpt>
      <trkpt lat="43.59305" lon="5.86819">
        <ele>447.7</ele>
        <time>2021-10-18T11:40:15.000Z</time>
      </trkpt>
      <trkpt lat="43.59304" lon="5.86832">
        <ele>447.5</ele>
        <time>2021-10-18T11:40:26.000Z</time>
      </trkpt>
      <trkpt lat="43.59303" lon="5.86846">
        <ele>447.2</ele>
        <time>2021-10-18T11:40:38.000Z</time>
      </trkpt>
      <trkpt lat="43.59301" lon="5.86859">
        <ele>447</ele>
        <time>2021-10-18T11:40:48.000Z</time>
      </trkpt>
      <trkpt lat="43.59298" lon="5.8687">
        <ele>446.9</ele>
        <time>2021-10-18T11:40:57.000Z</time>
      </trkpt>
      <trkpt lat="43.59297" lon="5.86883">
        <ele>446.6</ele>
        <time>2021-10-18T11:41:07.000Z</time>
      </trkpt>
      <trkpt lat="43.59296" lon="5.86896">
        <ele>446.7</ele>
        <time>2021-10-18T11:41:18.000Z</time>
      </trkpt>
      <trkpt lat="43.59294" lon="5.86909">
        <ele>446.7</ele>
        <time>2021-10-18T11:41:28.000Z</time>
      </trkpt>
      <trkpt lat="43.59291" lon="5.86921">
        <ele>446.9</ele>
        <time>2021-10-18T11:41:38.000Z</time>
      </trkpt>
      <trkpt lat="43.59289" lon="5.86934">
        <ele>447.7</ele>
        <time>2021-10-18T11:41:49.000Z</time>
      </trkpt>
      <trkpt lat="43.5929" lon="5.86946">
        <ele>448.3</ele>
        <time>2021-10-18T11:41:59.000Z</time>
      </trkpt>
      <trkpt lat="43.5929" lon="5.8696">
        <ele>448.6</ele>
        <time>2021-10-18T11:42:10.000Z</time>
      </trkpt>
      <trkpt lat="43.59293" lon="5.86972">
        <ele>448.8</ele>
        <time>2021-10-18T11:42:21.000Z</time>
      </trkpt>
      <trkpt lat="43.59292" lon="5.86985">
        <ele>448.2</ele>
        <time>2021-10-18T11:42:33.000Z</time>
      </trkpt>
      <trkpt lat="43.59289" lon="5.86997">
        <ele>450.6</ele>
        <time>2021-10-18T11:42:44.000Z</time>
      </trkpt>
      <trkpt lat="43.59287" lon="5.87011">
        <ele>452.1</ele>
        <time>2021-10-18T11:42:58.000Z</time>
      </trkpt>
      <trkpt lat="43.59287" lon="5.87024">
        <ele>452.1</ele>
        <time>2021-10-18T11:43:08.000Z</time>
      </trkpt>
      <trkpt lat="43.59286" lon="5.87037">
        <ele>450.4</ele>
        <time>2021-10-18T11:43:18.000Z</time>
      </trkpt>
      <trkpt lat="43.59284" lon="5.8705">
        <ele>449.7</ele>
        <time>2021-10-18T11:43:28.000Z</time>
      </trkpt>
      <trkpt lat="43.59281" lon="5.87062">
        <ele>448.9</ele>
        <time>2021-10-18T11:43:37.000Z</time>
      </trkpt>
      <trkpt lat="43.59278" lon="5.87075">
        <ele>448.5</ele>
        <time>2021-10-18T11:43:46.000Z</time>
      </trkpt>
      <trkpt lat="43.59275" lon="5.87087">
        <ele>447.8</ele>
        <time>2021-10-18T11:43:57.000Z</time>
      </trkpt>
      <trkpt lat="43.59275" lon="5.871">
        <ele>447</ele>
        <time>2021-10-18T11:44:07.000Z</time>
      </trkpt>
      <trkpt lat="43.5927" lon="5.87111">
        <ele>446.5</ele>
        <time>2021-10-18T11:44:16.000Z</time>
      </trkpt>
      <trkpt lat="43.59269" lon="5.87124">
        <ele>446</ele>
        <time>2021-10-18T11:44:25.000Z</time>
      </trkpt>
      <trkpt lat="43.59269" lon="5.87138">
        <ele>445.8</ele>
        <time>2021-10-18T11:44:36.000Z</time>
      </trkpt>
      <trkpt lat="43.59266" lon="5.8715">
        <ele>445.5</ele>
        <time>2021-10-18T11:44:46.000Z</time>
      </trkpt>
      <trkpt lat="43.59263" lon="5.87163">
        <ele>445.3</ele>
        <time>2021-10-18T11:44:55.000Z</time>
      </trkpt>
      <trkpt lat="43.59258" lon="5.87173">
        <ele>445.2</ele>
        <time>2021-10-18T11:45:04.000Z</time>
      </trkpt>
      <trkpt lat="43.59254" lon="5.87185">
        <ele>445</ele>
        <time>2021-10-18T11:45:14.000Z</time>
      </trkpt>
      <trkpt lat="43.59249" lon="5.87196">
        <ele>444.7</ele>
        <time>2021-10-18T11:45:24.000Z</time>
      </trkpt>
      <trkpt lat="43.59244" lon="5.87207">
        <ele>444.4</ele>
        <time>2021-10-18T11:45:34.000Z</time>
      </trkpt>
      <trkpt lat="43.59238" lon="5.87217">
        <ele>443.9</ele>
        <time>2021-10-18T11:45:45.000Z</time>
      </trkpt>
      <trkpt lat="43.59233" lon="5.87227">
        <ele>443.4</ele>
        <time>2021-10-18T11:45:55.000Z</time>
      </trkpt>
      <trkpt lat="43.5923" lon="5.8724">
        <ele>443.1</ele>
        <time>2021-10-18T11:46:07.000Z</time>
      </trkpt>
      <trkpt lat="43.59231" lon="5.87253">
        <ele>442.9</ele>
        <time>2021-10-18T11:46:17.000Z</time>
      </trkpt>
      <trkpt lat="43.59235" lon="5.87265">
        <ele>443.1</ele>
        <time>2021-10-18T11:46:26.000Z</time>
      </trkpt>
      <trkpt lat="43.5924" lon="5.87277">
        <ele>443.7</ele>
        <time>2021-10-18T11:46:37.000Z</time>
      </trkpt>
      <trkpt lat="43.59239" lon="5.87289">
        <ele>444.2</ele>
        <time>2021-10-18T11:46:48.000Z</time>
      </trkpt>
      <trkpt lat="43.59237" lon="5.87302">
        <ele>444.5</ele>
        <time>2021-10-18T11:46:59.000Z</time>
      </trkpt>
      <trkpt lat="43.59236" lon="5.87315">
        <ele>444.7</ele>
        <time>2021-10-18T11:47:08.000Z</time>
      </trkpt>
      <trkpt lat="43.59237" lon="5.87328">
        <ele>444.9</ele>
        <time>2021-10-18T11:47:18.000Z</time>
      </trkpt>
      <trkpt lat="43.5924" lon="5.87341">
        <ele>445.3</ele>
        <time>2021-10-18T11:47:28.000Z</time>
      </trkpt>
      <trkpt lat="43.59239" lon="5.87353">
        <ele>446</ele>
        <time>2021-10-18T11:47:37.000Z</time>
      </trkpt>
      <trkpt lat="43.5924" lon="5.87367">
        <ele>446.5</ele>
        <time>2021-10-18T11:47:47.000Z</time>
      </trkpt>
      <trkpt lat="43.59241" lon="5.87379">
        <ele>446.6</ele>
        <time>2021-10-18T11:47:56.000Z</time>
      </trkpt>
      <trkpt lat="43.59242" lon="5.87392">
        <ele>446.9</ele>
        <time>2021-10-18T11:48:06.000Z</time>
      </trkpt>
      <trkpt lat="43.59245" lon="5.87404">
        <ele>447.2</ele>
        <time>2021-10-18T11:48:17.000Z</time>
      </trkpt>
      <trkpt lat="43.59246" lon="5.87417">
        <ele>447.3</ele>
        <time>2021-10-18T11:48:29.000Z</time>
      </trkpt>
      <trkpt lat="43.59243" lon="5.87431">
        <ele>447.6</ele>
        <time>2021-10-18T11:48:38.000Z</time>
      </trkpt>
      <trkpt lat="43.59242" lon="5.87444">
        <ele>447.9</ele>
        <time>2021-10-18T11:48:48.000Z</time>
      </trkpt>
      <trkpt lat="43.59243" lon="5.87458">
        <ele>447.9</ele>
        <time>2021-10-18T11:48:58.000Z</time>
      </trkpt>
      <trkpt lat="43.59245" lon="5.87471">
        <ele>448</ele>
        <time>2021-10-18T11:49:07.000Z</time>
      </trkpt>
      <trkpt lat="43.59243" lon="5.87484">
        <ele>448.6</ele>
        <time>2021-10-18T11:49:17.000Z</time>
      </trkpt>
      <trkpt lat="43.59239" lon="5.87497">
        <ele>449.4</ele>
        <time>2021-10-18T11:49:29.000Z</time>
      </trkpt>
      <trkpt lat="43.59239" lon="5.8751">
        <ele>450.3</ele>
        <time>2021-10-18T11:49:41.000Z</time>
      </trkpt>
      <trkpt lat="43.5924" lon="5.87522">
        <ele>450.4</ele>
        <time>2021-10-18T11:49:51.000Z</time>
      </trkpt>
      <trkpt lat="43.5924" lon="5.87535">
        <ele>450.1</ele>
        <time>2021-10-18T11:50:01.000Z</time>
      </trkpt>
      <trkpt lat="43.59239" lon="5.87548">
        <ele>449.6</ele>
        <time>2021-10-18T11:50:11.000Z</time>
      </trkpt>
      <trkpt lat="43.59239" lon="5.87562">
        <ele>449</ele>
        <time>2021-10-18T11:50:21.000Z</time>
      </trkpt>
      <trkpt lat="43.59241" lon="5.87575">
        <ele>448.5</ele>
        <time>2021-10-18T11:50:32.000Z</time>
      </trkpt>
      <trkpt lat="43.5924" lon="5.87589">
        <ele>448.2</ele>
        <time>2021-10-18T11:50:42.000Z</time>
      </trkpt>
      <trkpt lat="43.59237" lon="5.87601">
        <ele>447.8</ele>
        <time>2021-10-18T11:50:51.000Z</time>
      </trkpt>
      <trkpt lat="43.59234" lon="5.87614">
        <ele>446.9</ele>
        <time>2021-10-18T11:51:00.000Z</time>
      </trkpt>
      <trkpt lat="43.5923" lon="5.87626">
        <ele>446</ele>
        <time>2021-10-18T11:51:09.000Z</time>
      </trkpt>
      <trkpt lat="43.59227" lon="5.87638">
        <ele>445.4</ele>
        <time>2021-10-18T11:51:18.000Z</time>
      </trkpt>
      <trkpt lat="43.59223" lon="5.8765">
        <ele>445</ele>
        <time>2021-10-18T11:51:26.000Z</time>
      </trkpt>
      <trkpt lat="43.59222" lon="5.87663">
        <ele>444.7</ele>
        <time>2021-10-18T11:51:36.000Z</time>
      </trkpt>
      <trkpt lat="43.5922" lon="5.87676">
        <ele>444</ele>
        <time>2021-10-18T11:51:46.000Z</time>
      </trkpt>
      <trkpt lat="43.59219" lon="5.87689">
        <ele>443.4</ele>
        <time>2021-10-18T11:51:56.000Z</time>
      </trkpt>
      <trkpt lat="43.59217" lon="5.87703">
        <ele>443</ele>
        <time>2021-10-18T11:52:05.000Z</time>
      </trkpt>
      <trkpt lat="43.59214" lon="5.87715">
        <ele>442.5</ele>
        <time>2021-10-18T11:52:14.000Z</time>
      </trkpt>
      <trkpt lat="43.59213" lon="5.87729">
        <ele>442</ele>
        <time>2021-10-18T11:52:25.000Z</time>
      </trkpt>
      <trkpt lat="43.59213" lon="5.87743">
        <ele>442.9</ele>
        <time>2021-10-18T11:52:36.000Z</time>
      </trkpt>
      <trkpt lat="43.59212" lon="5.87756">
        <ele>443.8</ele>
        <time>2021-10-18T11:52:50.000Z</time>
      </trkpt>
      <trkpt lat="43.5921" lon="5.87769">
        <ele>444.2</ele>
        <time>2021-10-18T11:53:01.000Z</time>
      </trkpt>
      <trkpt lat="43.59208" lon="5.87781">
        <ele>444.6</ele>
        <time>2021-10-18T11:53:14.000Z</time>
      </trkpt>
      <trkpt lat="43.59209" lon="5.87794">
        <ele>444</ele>
        <time>2021-10-18T11:53:27.000Z</time>
      </trkpt>
      <trkpt lat="43.59206" lon="5.87807">
        <ele>444.2</ele>
        <time>2021-10-18T11:53:37.000Z</time>
      </trkpt>
      <trkpt lat="43.59208" lon="5.8782">
        <ele>444.2</ele>
        <time>2021-10-18T11:53:47.000Z</time>
      </trkpt>
      <trkpt lat="43.59207" lon="5.87832">
        <ele>444.2</ele>
        <time>2021-10-18T11:53:56.000Z</time>
      </trkpt>
      <trkpt lat="43.59205" lon="5.87845">
        <ele>444.7</ele>
        <time>2021-10-18T11:54:08.000Z</time>
      </trkpt>
      <trkpt lat="43.59203" lon="5.87858">
        <ele>445</ele>
        <time>2021-10-18T11:54:19.000Z</time>
      </trkpt>
      <trkpt lat="43.592" lon="5.87869">
        <ele>444.9</ele>
        <time>2021-10-18T11:54:29.000Z</time>
      </trkpt>
      <trkpt lat="43.59196" lon="5.87881">
        <ele>445.1</ele>
        <time>2021-10-18T11:54:40.000Z</time>
      </trkpt>
      <trkpt lat="43.59195" lon="5.87894">
        <ele>445.4</ele>
        <time>2021-10-18T11:54:51.000Z</time>
      </trkpt>
      <trkpt lat="43.59192" lon="5.87907">
        <ele>445.8</ele>
        <time>2021-10-18T11:55:02.000Z</time>
      </trkpt>
      <trkpt lat="43.5919" lon="5.8792">
        <ele>445.9</ele>
        <time>2021-10-18T11:55:13.000Z</time>
      </trkpt>
      <trkpt lat="43.59184" lon="5.8793">
        <ele>446</ele>
        <time>2021-10-18T11:55:23.000Z</time>
      </trkpt>
      <trkpt lat="43.59179" lon="5.87941">
        <ele>445.7</ele>
        <time>2021-10-18T11:55:33.000Z</time>
      </trkpt>
      <trkpt lat="43.59172" lon="5.8795">
        <ele>445.5</ele>
        <time>2021-10-18T11:55:44.000Z</time>
      </trkpt>
      <trkpt lat="43.59165" lon="5.87958">
        <ele>445.5</ele>
        <time>2021-10-18T11:55:53.000Z</time>
      </trkpt>
      <trkpt lat="43.59157" lon="5.87965">
        <ele>445.5</ele>
        <time>2021-10-18T11:56:04.000Z</time>
      </trkpt>
      <trkpt lat="43.5915" lon="5.87974">
        <ele>445.2</ele>
        <time>2021-10-18T11:56:15.000Z</time>
      </trkpt>
      <trkpt lat="43.59146" lon="5.87985">
        <ele>444.4</ele>
        <time>2021-10-18T11:56:26.000Z</time>
      </trkpt>
      <trkpt lat="43.59142" lon="5.87997">
        <ele>443.5</ele>
        <time>2021-10-18T11:56:37.000Z</time>
      </trkpt>
      <trkpt lat="43.59135" lon="5.88005">
        <ele>442.8</ele>
        <time>2021-10-18T11:56:48.000Z</time>
      </trkpt>
      <trkpt lat="43.59126" lon="5.88011">
        <ele>442</ele>
        <time>2021-10-18T11:56:59.000Z</time>
      </trkpt>
      <trkpt lat="43.59118" lon="5.88018">
        <ele>441.3</ele>
        <time>2021-10-18T11:57:10.000Z</time>
      </trkpt>
      <trkpt lat="43.5911" lon="5.88024">
        <ele>440.7</ele>
        <time>2021-10-18T11:57:21.000Z</time>
      </trkpt>
      <trkpt lat="43.59101" lon="5.88028">
        <ele>440.5</ele>
        <time>2021-10-18T11:57:30.000Z</time>
      </trkpt>
      <trkpt lat="43.59091" lon="5.88028">
        <ele>440</ele>
        <time>2021-10-18T11:57:40.000Z</time>
      </trkpt>
      <trkpt lat="43.59082" lon="5.8803">
        <ele>439.7</ele>
        <time>2021-10-18T11:57:50.000Z</time>
      </trkpt>
      <trkpt lat="43.59073" lon="5.88032">
        <ele>439.5</ele>
        <time>2021-10-18T11:57:58.000Z</time>
      </trkpt>
      <trkpt lat="43.59064" lon="5.88033">
        <ele>439</ele>
        <time>2021-10-18T11:58:07.000Z</time>
      </trkpt>
      <trkpt lat="43.59055" lon="5.88037">
        <ele>438.5</ele>
        <time>2021-10-18T11:58:20.000Z</time>
      </trkpt>
      <trkpt lat="43.59048" lon="5.88046">
        <ele>437.9</ele>
        <time>2021-10-18T11:58:50.000Z</time>
      </trkpt>
      <trkpt lat="43.59042" lon="5.88055">
        <ele>435.6</ele>
        <time>2021-10-18T12:01:03.000Z</time>
      </trkpt>
      <trkpt lat="43.59038" lon="5.88067">
        <ele>435.4</ele>
        <time>2021-10-18T12:01:13.000Z</time>
      </trkpt>
      <trkpt lat="43.59032" lon="5.88078">
        <ele>435.3</ele>
        <time>2021-10-18T12:01:24.000Z</time>
      </trkpt>
      <trkpt lat="43.59027" lon="5.88088">
        <ele>436.2</ele>
        <time>2021-10-18T12:01:49.000Z</time>
      </trkpt>
      <trkpt lat="43.59018" lon="5.88091">
        <ele>435.2</ele>
        <time>2021-10-18T12:04:10.000Z</time>
      </trkpt>
      <trkpt lat="43.5901" lon="5.88097">
        <ele>435.4</ele>
        <time>2021-10-18T12:04:21.000Z</time>
      </trkpt>
      <trkpt lat="43.59" lon="5.88102">
        <ele>435.9</ele>
        <time>2021-10-18T12:04:37.000Z</time>
      </trkpt>
      <trkpt lat="43.58993" lon="5.8811">
        <ele>436.3</ele>
        <time>2021-10-18T12:04:47.000Z</time>
      </trkpt>
      <trkpt lat="43.58984" lon="5.88115">
        <ele>436.7</ele>
        <time>2021-10-18T12:04:57.000Z</time>
      </trkpt>
      <trkpt lat="43.58975" lon="5.88121">
        <ele>437.2</ele>
        <time>2021-10-18T12:05:07.000Z</time>
      </trkpt>
      <trkpt lat="43.58966" lon="5.88123">
        <ele>437.7</ele>
        <time>2021-10-18T12:05:17.000Z</time>
      </trkpt>
      <trkpt lat="43.58957" lon="5.88125">
        <ele>438.1</ele>
        <time>2021-10-18T12:05:27.000Z</time>
      </trkpt>
      <trkpt lat="43.58948" lon="5.88127">
        <ele>438.8</ele>
        <time>2021-10-18T12:05:38.000Z</time>
      </trkpt>
      <trkpt lat="43.58939" lon="5.88129">
        <ele>439.3</ele>
        <time>2021-10-18T12:05:46.000Z</time>
      </trkpt>
      <trkpt lat="43.58929" lon="5.88128">
        <ele>439.6</ele>
        <time>2021-10-18T12:05:55.000Z</time>
      </trkpt>
      <trkpt lat="43.5892" lon="5.8813">
        <ele>439.7</ele>
        <time>2021-10-18T12:06:03.000Z</time>
      </trkpt>
      <trkpt lat="43.58911" lon="5.88134">
        <ele>440.2</ele>
        <time>2021-10-18T12:06:12.000Z</time>
      </trkpt>
      <trkpt lat="43.58902" lon="5.88139">
        <ele>440.7</ele>
        <time>2021-10-18T12:06:22.000Z</time>
      </trkpt>
      <trkpt lat="43.58895" lon="5.88146">
        <ele>441.1</ele>
        <time>2021-10-18T12:06:32.000Z</time>
      </trkpt>
      <trkpt lat="43.58887" lon="5.88153">
        <ele>441.5</ele>
        <time>2021-10-18T12:06:43.000Z</time>
      </trkpt>
      <trkpt lat="43.58881" lon="5.88164">
        <ele>442</ele>
        <time>2021-10-18T12:06:51.000Z</time>
      </trkpt>
      <trkpt lat="43.58875" lon="5.88173">
        <ele>443</ele>
        <time>2021-10-18T12:07:03.000Z</time>
      </trkpt>
      <trkpt lat="43.58868" lon="5.88181">
        <ele>443.5</ele>
        <time>2021-10-18T12:07:10.000Z</time>
      </trkpt>
      <trkpt lat="43.58861" lon="5.8819">
        <ele>443.9</ele>
        <time>2021-10-18T12:07:17.000Z</time>
      </trkpt>
      <trkpt lat="43.58853" lon="5.88199">
        <ele>444.5</ele>
        <time>2021-10-18T12:07:26.000Z</time>
      </trkpt>
      <trkpt lat="43.58847" lon="5.88209">
        <ele>445</ele>
        <time>2021-10-18T12:07:34.000Z</time>
      </trkpt>
      <trkpt lat="43.5884" lon="5.88218">
        <ele>445.5</ele>
        <time>2021-10-18T12:07:42.000Z</time>
      </trkpt>
      <trkpt lat="43.58832" lon="5.88224">
        <ele>445.9</ele>
        <time>2021-10-18T12:07:50.000Z</time>
      </trkpt>
      <trkpt lat="43.58824" lon="5.88229">
        <ele>446.3</ele>
        <time>2021-10-18T12:07:58.000Z</time>
      </trkpt>
      <trkpt lat="43.58815" lon="5.88232">
        <ele>445.6</ele>
        <time>2021-10-18T12:08:07.000Z</time>
      </trkpt>
      <trkpt lat="43.58805" lon="5.88237">
        <ele>446.8</ele>
        <time>2021-10-18T12:08:17.000Z</time>
      </trkpt>
      <trkpt lat="43.588" lon="5.88248">
        <ele>449.6</ele>
        <time>2021-10-18T12:08:31.000Z</time>
      </trkpt>
      <trkpt lat="43.58793" lon="5.88256">
        <ele>448.4</ele>
        <time>2021-10-18T12:09:11.000Z</time>
      </trkpt>
      <trkpt lat="43.58784" lon="5.88253">
        <ele>448.2</ele>
        <time>2021-10-18T12:09:21.000Z</time>
      </trkpt>
      <trkpt lat="43.58775" lon="5.88247">
        <ele>447.8</ele>
        <time>2021-10-18T12:09:31.000Z</time>
      </trkpt>
      <trkpt lat="43.58766" lon="5.88242">
        <ele>447.8</ele>
        <time>2021-10-18T12:09:41.000Z</time>
      </trkpt>
      <trkpt lat="43.58757" lon="5.8824">
        <ele>448.2</ele>
        <time>2021-10-18T12:09:51.000Z</time>
      </trkpt>
      <trkpt lat="43.58748" lon="5.88244">
        <ele>450.3</ele>
        <time>2021-10-18T12:10:47.000Z</time>
      </trkpt>
      <trkpt lat="43.5875" lon="5.8823">
        <ele>450</ele>
        <time>2021-10-18T12:11:23.000Z</time>
      </trkpt>
      <trkpt lat="43.5874" lon="5.8823">
        <ele>450.3</ele>
        <time>2021-10-18T12:15:46.000Z</time>
      </trkpt>
      <trkpt lat="43.58731" lon="5.88229">
        <ele>450.6</ele>
        <time>2021-10-18T12:15:58.000Z</time>
      </trkpt>
      <trkpt lat="43.58722" lon="5.8823">
        <ele>451.1</ele>
        <time>2021-10-18T12:16:09.000Z</time>
      </trkpt>
      <trkpt lat="43.58712" lon="5.88227">
        <ele>452.6</ele>
        <time>2021-10-18T12:16:25.000Z</time>
      </trkpt>
      <trkpt lat="43.58703" lon="5.88228">
        <ele>453.2</ele>
        <time>2021-10-18T12:16:37.000Z</time>
      </trkpt>
      <trkpt lat="43.58694" lon="5.88228">
        <ele>454.6</ele>
        <time>2021-10-18T12:16:58.000Z</time>
      </trkpt>
      <trkpt lat="43.58685" lon="5.88231">
        <ele>455.3</ele>
        <time>2021-10-18T12:17:12.000Z</time>
      </trkpt>
      <trkpt lat="43.58675" lon="5.88236">
        <ele>456.3</ele>
        <time>2021-10-18T12:17:25.000Z</time>
      </trkpt>
      <trkpt lat="43.58666" lon="5.88235">
        <ele>457.1</ele>
        <time>2021-10-18T12:17:37.000Z</time>
      </trkpt>
      <trkpt lat="43.58657" lon="5.88236">
        <ele>458.2</ele>
        <time>2021-10-18T12:17:49.000Z</time>
      </trkpt>
      <trkpt lat="43.58651" lon="5.88226">
        <ele>459.3</ele>
        <time>2021-10-18T12:18:01.000Z</time>
      </trkpt>
      <trkpt lat="43.58642" lon="5.88224">
        <ele>460.6</ele>
        <time>2021-10-18T12:18:15.000Z</time>
      </trkpt>
      <trkpt lat="43.58634" lon="5.8823">
        <ele>461.4</ele>
        <time>2021-10-18T12:18:28.000Z</time>
      </trkpt>
      <trkpt lat="43.58626" lon="5.88237">
        <ele>462.7</ele>
        <time>2021-10-18T12:18:42.000Z</time>
      </trkpt>
      <trkpt lat="43.58617" lon="5.88242">
        <ele>463.6</ele>
        <time>2021-10-18T12:18:55.000Z</time>
      </trkpt>
      <trkpt lat="43.58608" lon="5.88247">
        <ele>464.5</ele>
        <time>2021-10-18T12:19:07.000Z</time>
      </trkpt>
      <trkpt lat="43.58599" lon="5.88252">
        <ele>465.7</ele>
        <time>2021-10-18T12:19:18.000Z</time>
      </trkpt>
      <trkpt lat="43.58591" lon="5.88258">
        <ele>466.8</ele>
        <time>2021-10-18T12:19:33.000Z</time>
      </trkpt>
      <trkpt lat="43.58583" lon="5.88264">
        <ele>468.1</ele>
        <time>2021-10-18T12:19:45.000Z</time>
      </trkpt>
      <trkpt lat="43.58576" lon="5.88274">
        <ele>469</ele>
        <time>2021-10-18T12:20:00.000Z</time>
      </trkpt>
      <trkpt lat="43.58583" lon="5.88283">
        <ele>469.9</ele>
        <time>2021-10-18T12:20:26.000Z</time>
      </trkpt>
      <trkpt lat="43.58593" lon="5.8828">
        <ele>470.3</ele>
        <time>2021-10-18T12:20:39.000Z</time>
      </trkpt>
      <trkpt lat="43.58601" lon="5.88276">
        <ele>471.7</ele>
        <time>2021-10-18T12:21:04.000Z</time>
      </trkpt>
      <trkpt lat="43.5861" lon="5.88275">
        <ele>472.1</ele>
        <time>2021-10-18T12:21:18.000Z</time>
      </trkpt>
      <trkpt lat="43.58619" lon="5.88275">
        <ele>473.1</ele>
        <time>2021-10-18T12:21:32.000Z</time>
      </trkpt>
      <trkpt lat="43.58629" lon="5.88274">
        <ele>473.9</ele>
        <time>2021-10-18T12:21:45.000Z</time>
      </trkpt>
      <trkpt lat="43.58638" lon="5.88274">
        <ele>475</ele>
        <time>2021-10-18T12:21:58.000Z</time>
      </trkpt>
      <trkpt lat="43.58647" lon="5.88274">
        <ele>475.6</ele>
        <time>2021-10-18T12:22:09.000Z</time>
      </trkpt>
      <trkpt lat="43.58656" lon="5.88276">
        <ele>476.1</ele>
        <time>2021-10-18T12:22:19.000Z</time>
      </trkpt>
      <trkpt lat="43.58666" lon="5.88276">
        <ele>476.8</ele>
        <time>2021-10-18T12:22:36.000Z</time>
      </trkpt>
      <trkpt lat="43.58675" lon="5.88276">
        <ele>477.8</ele>
        <time>2021-10-18T12:22:54.000Z</time>
      </trkpt>
      <trkpt lat="43.58683" lon="5.88281">
        <ele>478.5</ele>
        <time>2021-10-18T12:23:10.000Z</time>
      </trkpt>
      <trkpt lat="43.58692" lon="5.88286">
        <ele>479.9</ele>
        <time>2021-10-18T12:23:27.000Z</time>
      </trkpt>
      <trkpt lat="43.58698" lon="5.88296">
        <ele>481.3</ele>
        <time>2021-10-18T12:23:39.000Z</time>
      </trkpt>
      <trkpt lat="43.58702" lon="5.88307">
        <ele>482.1</ele>
        <time>2021-10-18T12:23:49.000Z</time>
      </trkpt>
      <trkpt lat="43.58709" lon="5.88317">
        <ele>483.2</ele>
        <time>2021-10-18T12:24:01.000Z</time>
      </trkpt>
      <trkpt lat="43.58701" lon="5.88325">
        <ele>484.3</ele>
        <time>2021-10-18T12:24:52.000Z</time>
      </trkpt>
      <trkpt lat="43.58693" lon="5.88331">
        <ele>484.9</ele>
        <time>2021-10-18T12:25:04.000Z</time>
      </trkpt>
      <trkpt lat="43.58684" lon="5.88336">
        <ele>484.1</ele>
        <time>2021-10-18T12:25:16.000Z</time>
      </trkpt>
      <trkpt lat="43.58677" lon="5.88344">
        <ele>487.5</ele>
        <time>2021-10-18T12:25:30.000Z</time>
      </trkpt>
      <trkpt lat="43.58668" lon="5.8835">
        <ele>487.3</ele>
        <time>2021-10-18T12:25:43.000Z</time>
      </trkpt>
      <trkpt lat="43.5866" lon="5.88357">
        <ele>487.4</ele>
        <time>2021-10-18T12:25:55.000Z</time>
      </trkpt>
      <trkpt lat="43.58653" lon="5.88366">
        <ele>488.1</ele>
        <time>2021-10-18T12:26:06.000Z</time>
      </trkpt>
      <trkpt lat="43.58647" lon="5.88377">
        <ele>488.7</ele>
        <time>2021-10-18T12:26:16.000Z</time>
      </trkpt>
      <trkpt lat="43.5864" lon="5.88386">
        <ele>489.3</ele>
        <time>2021-10-18T12:26:26.000Z</time>
      </trkpt>
      <trkpt lat="43.58634" lon="5.88396">
        <ele>489.7</ele>
        <time>2021-10-18T12:26:36.000Z</time>
      </trkpt>
      <trkpt lat="43.58629" lon="5.88407">
        <ele>490</ele>
        <time>2021-10-18T12:26:47.000Z</time>
      </trkpt>
      <trkpt lat="43.58638" lon="5.88405">
        <ele>490.1</ele>
        <time>2021-10-18T12:27:08.000Z</time>
      </trkpt>
      <trkpt lat="43.58647" lon="5.88409">
        <ele>491.1</ele>
        <time>2021-10-18T12:27:20.000Z</time>
      </trkpt>
      <trkpt lat="43.58656" lon="5.8841">
        <ele>491.8</ele>
        <time>2021-10-18T12:27:33.000Z</time>
      </trkpt>
      <trkpt lat="43.58665" lon="5.8841">
        <ele>492</ele>
        <time>2021-10-18T12:27:46.000Z</time>
      </trkpt>
      <trkpt lat="43.58674" lon="5.88413">
        <ele>493.8</ele>
        <time>2021-10-18T12:28:04.000Z</time>
      </trkpt>
      <trkpt lat="43.58683" lon="5.88417">
        <ele>494.5</ele>
        <time>2021-10-18T12:28:15.000Z</time>
      </trkpt>
      <trkpt lat="43.58692" lon="5.88423">
        <ele>495.3</ele>
        <time>2021-10-18T12:28:26.000Z</time>
      </trkpt>
      <trkpt lat="43.587" lon="5.88429">
        <ele>496.2</ele>
        <time>2021-10-18T12:28:37.000Z</time>
      </trkpt>
      <trkpt lat="43.58709" lon="5.88434">
        <ele>496.9</ele>
        <time>2021-10-18T12:28:46.000Z</time>
      </trkpt>
      <trkpt lat="43.58719" lon="5.88439">
        <ele>497.3</ele>
        <time>2021-10-18T12:28:55.000Z</time>
      </trkpt>
      <trkpt lat="43.58727" lon="5.88444">
        <ele>497.5</ele>
        <time>2021-10-18T12:29:03.000Z</time>
      </trkpt>
      <trkpt lat="43.58736" lon="5.8845">
        <ele>497.5</ele>
        <time>2021-10-18T12:29:12.000Z</time>
      </trkpt>
      <trkpt lat="43.58744" lon="5.88456">
        <ele>497.4</ele>
        <time>2021-10-18T12:29:27.000Z</time>
      </trkpt>
      <trkpt lat="43.58751" lon="5.88464">
        <ele>499</ele>
        <time>2021-10-18T12:29:38.000Z</time>
      </trkpt>
      <trkpt lat="43.58756" lon="5.88475">
        <ele>500.1</ele>
        <time>2021-10-18T12:29:48.000Z</time>
      </trkpt>
      <trkpt lat="43.58761" lon="5.88486">
        <ele>501.7</ele>
        <time>2021-10-18T12:29:58.000Z</time>
      </trkpt>
      <trkpt lat="43.58766" lon="5.88497">
        <ele>503.1</ele>
        <time>2021-10-18T12:30:06.000Z</time>
      </trkpt>
      <trkpt lat="43.5877" lon="5.88508">
        <ele>502.3</ele>
        <time>2021-10-18T12:30:17.000Z</time>
      </trkpt>
      <trkpt lat="43.58773" lon="5.8852">
        <ele>502.4</ele>
        <time>2021-10-18T12:30:28.000Z</time>
      </trkpt>
      <trkpt lat="43.58776" lon="5.88533">
        <ele>502.6</ele>
        <time>2021-10-18T12:30:39.000Z</time>
      </trkpt>
      <trkpt lat="43.58775" lon="5.88546">
        <ele>503</ele>
        <time>2021-10-18T12:30:56.000Z</time>
      </trkpt>
      <trkpt lat="43.58778" lon="5.88559">
        <ele>503.9</ele>
        <time>2021-10-18T12:31:08.000Z</time>
      </trkpt>
      <trkpt lat="43.58778" lon="5.88571">
        <ele>504.6</ele>
        <time>2021-10-18T12:31:21.000Z</time>
      </trkpt>
      <trkpt lat="43.58779" lon="5.88584">
        <ele>505.5</ele>
        <time>2021-10-18T12:31:37.000Z</time>
      </trkpt>
      <trkpt lat="43.5878" lon="5.88597">
        <ele>506.1</ele>
        <time>2021-10-18T12:31:50.000Z</time>
      </trkpt>
      <trkpt lat="43.58785" lon="5.88608">
        <ele>506.7</ele>
        <time>2021-10-18T12:32:03.000Z</time>
      </trkpt>
      <trkpt lat="43.58793" lon="5.88614">
        <ele>506.7</ele>
        <time>2021-10-18T12:32:18.000Z</time>
      </trkpt>
      <trkpt lat="43.58801" lon="5.88621">
        <ele>506</ele>
        <time>2021-10-18T12:32:57.000Z</time>
      </trkpt>
      <trkpt lat="43.58804" lon="5.88609">
        <ele>504.8</ele>
        <time>2021-10-18T12:33:20.000Z</time>
      </trkpt>
      <trkpt lat="43.58807" lon="5.88598">
        <ele>504.3</ele>
        <time>2021-10-18T12:33:31.000Z</time>
      </trkpt>
      <trkpt lat="43.58811" lon="5.88585">
        <ele>503.9</ele>
        <time>2021-10-18T12:33:41.000Z</time>
      </trkpt>
      <trkpt lat="43.58816" lon="5.88574">
        <ele>503.1</ele>
        <time>2021-10-18T12:33:51.000Z</time>
      </trkpt>
      <trkpt lat="43.58819" lon="5.88561">
        <ele>502.2</ele>
        <time>2021-10-18T12:34:01.000Z</time>
      </trkpt>
      <trkpt lat="43.58822" lon="5.88549">
        <ele>501.6</ele>
        <time>2021-10-18T12:34:11.000Z</time>
      </trkpt>
      <trkpt lat="43.58826" lon="5.88538">
        <ele>500.9</ele>
        <time>2021-10-18T12:34:20.000Z</time>
      </trkpt>
      <trkpt lat="43.5883" lon="5.88526">
        <ele>500.2</ele>
        <time>2021-10-18T12:34:33.000Z</time>
      </trkpt>
      <trkpt lat="43.58832" lon="5.88514">
        <ele>499</ele>
        <time>2021-10-18T12:34:52.000Z</time>
      </trkpt>
      <trkpt lat="43.58835" lon="5.88502">
        <ele>497.7</ele>
        <time>2021-10-18T12:35:07.000Z</time>
      </trkpt>
      <trkpt lat="43.58835" lon="5.88489">
        <ele>495.5</ele>
        <time>2021-10-18T12:35:27.000Z</time>
      </trkpt>
      <trkpt lat="43.58839" lon="5.88477">
        <ele>494.6</ele>
        <time>2021-10-18T12:35:48.000Z</time>
      </trkpt>
      <trkpt lat="43.58842" lon="5.88465">
        <ele>493.3</ele>
        <time>2021-10-18T12:36:01.000Z</time>
      </trkpt>
      <trkpt lat="43.58847" lon="5.88454">
        <ele>491.8</ele>
        <time>2021-10-18T12:36:14.000Z</time>
      </trkpt>
      <trkpt lat="43.5885" lon="5.88443">
        <ele>490.2</ele>
        <time>2021-10-18T12:36:33.000Z</time>
      </trkpt>
      <trkpt lat="43.58854" lon="5.88431">
        <ele>489.5</ele>
        <time>2021-10-18T12:36:55.000Z</time>
      </trkpt>
      <trkpt lat="43.58858" lon="5.88419">
        <ele>488.6</ele>
        <time>2021-10-18T12:37:10.000Z</time>
      </trkpt>
      <trkpt lat="43.58852" lon="5.88409">
        <ele>485.6</ele>
        <time>2021-10-18T12:38:11.000Z</time>
      </trkpt>
      <trkpt lat="43.5886" lon="5.88415">
        <ele>488</ele>
        <time>2021-10-18T12:38:38.000Z</time>
      </trkpt>
      <trkpt lat="43.58863" lon="5.88427">
        <ele>487.1</ele>
        <time>2021-10-18T12:38:50.000Z</time>
      </trkpt>
      <trkpt lat="43.58869" lon="5.88438">
        <ele>485</ele>
        <time>2021-10-18T12:39:07.000Z</time>
      </trkpt>
      <trkpt lat="43.58878" lon="5.88441">
        <ele>482.7</ele>
        <time>2021-10-18T12:39:27.000Z</time>
      </trkpt>
      <trkpt lat="43.58886" lon="5.88448">
        <ele>481</ele>
        <time>2021-10-18T12:39:41.000Z</time>
      </trkpt>
      <trkpt lat="43.58895" lon="5.8845">
        <ele>479.9</ele>
        <time>2021-10-18T12:39:52.000Z</time>
      </trkpt>
      <trkpt lat="43.58904" lon="5.88449">
        <ele>478.5</ele>
        <time>2021-10-18T12:40:04.000Z</time>
      </trkpt>
      <trkpt lat="43.58907" lon="5.88437">
        <ele>477.4</ele>
        <time>2021-10-18T12:40:15.000Z</time>
      </trkpt>
      <trkpt lat="43.58903" lon="5.88426">
        <ele>476.1</ele>
        <time>2021-10-18T12:40:40.000Z</time>
      </trkpt>
      <trkpt lat="43.58895" lon="5.88418">
        <ele>475.5</ele>
        <time>2021-10-18T12:40:51.000Z</time>
      </trkpt>
      <trkpt lat="43.58888" lon="5.88412">
        <ele>474.7</ele>
        <time>2021-10-18T12:41:01.000Z</time>
      </trkpt>
      <trkpt lat="43.58888" lon="5.88399">
        <ele>473.9</ele>
        <time>2021-10-18T12:41:17.000Z</time>
      </trkpt>
      <trkpt lat="43.58894" lon="5.88389">
        <ele>471.5</ele>
        <time>2021-10-18T12:41:40.000Z</time>
      </trkpt>
      <trkpt lat="43.58903" lon="5.88392">
        <ele>470.7</ele>
        <time>2021-10-18T12:41:51.000Z</time>
      </trkpt>
      <trkpt lat="43.58905" lon="5.88387">
        <ele>469.7</ele>
        <time>2021-10-18T12:45:27.000Z</time>
      </trkpt>
    </trkseg>
  </trk>
</gpx>